<?xml version="1.0" encoding="ISO-8859-1" standalone="yes"?>
<gpx
 version="1.0"
 creator="OziExplorer Version 3954q - http://www.oziexplorer.com"
 xmlns:xsi="http://www.w3.org/2001/XMLSchema-instance"
 xmlns="http://www.topografix.com/GPX/1/0"
 xsi:schemaLocation="http://www.topografix.com/GPX/1/0 http://www.topografix.com/GPX/1/0/gpx.xsd">
<time>2017-03-09T20:55:04Z</time>
<bounds minlat="39.193151" minlon="-6.148581" maxlat="39.224999" maxlon="-6.109323"/>
<wpt lat="39.2225438" lon="-6.1468431">
 <ele>718.108826</ele>
 <time>2016-03-05T08:29:33.003Z</time>
 <name>PANEL DE INICIO</name>
 <cmt>PANEL DE INICIO Y FIN</cmt>
 <desc>PANEL DE INICIO Y FIN</desc>
</wpt>
<wpt lat="39.2052286" lon="-6.1450097">
 <ele>700.125610</ele>
 <time>2016-03-05T14:39:20.998Z</time>
 <name>FUENTE</name>
</wpt>
<trk>
 <name>TRACK PR CC 28 05032016</name>
 <desc>Track actual: 05 MAR 2016 09:14</desc>
<trkseg>
<trkpt lat="39.2225478" lon="-6.1468471">
<ele>718.230713</ele>
<time>2016-03-05T07:28:20.035Z</time>
</trkpt>
<trkpt lat="39.2225038" lon="-6.1468461">
<ele>718.230713</ele>
<time>2016-03-05T07:33:58.982Z</time>
</trkpt>
<trkpt lat="39.2224478" lon="-6.1468501">
<ele>718.230713</ele>
<time>2016-03-05T07:34:56.957Z</time>
</trkpt>
<trkpt lat="39.2223618" lon="-6.1468111">
<ele>719.206116</ele>
<time>2016-03-05T07:35:08.966Z</time>
</trkpt>
<trkpt lat="39.2223158" lon="-6.1467751">
<ele>719.693726</ele>
<time>2016-03-05T07:35:13.978Z</time>
</trkpt>
<trkpt lat="39.2222818" lon="-6.1467571">
<ele>721.126282</ele>
<time>2016-03-05T07:35:29.011Z</time>
</trkpt>
<trkpt lat="39.2222228" lon="-6.1466981">
<ele>721.614014</ele>
<time>2016-03-05T07:36:11.002Z</time>
</trkpt>
<trkpt lat="39.2221918" lon="-6.1466671">
<ele>722.101685</ele>
<time>2016-03-05T07:36:30.960Z</time>
</trkpt>
<trkpt lat="39.2221748" lon="-6.1466531">
<ele>722.101685</ele>
<time>2016-03-05T07:36:51.005Z</time>
</trkpt>
<trkpt lat="39.2221298" lon="-6.1466451">
<ele>722.558899</ele>
<time>2016-03-05T07:38:49.978Z</time>
</trkpt>
<trkpt lat="39.2219458" lon="-6.1466401">
<ele>724.021912</ele>
<time>2016-03-05T07:39:08.035Z</time>
</trkpt>
<trkpt lat="39.2216978" lon="-6.1466401">
<ele>726.399353</ele>
<time>2016-03-05T07:39:27.994Z</time>
</trkpt>
<trkpt lat="39.2215298" lon="-6.1466331">
<ele>728.350098</ele>
<time>2016-03-05T07:39:41.990Z</time>
</trkpt>
<trkpt lat="39.2213848" lon="-6.1465291">
<ele>730.270264</ele>
<time>2016-03-05T07:39:57.024Z</time>
</trkpt>
<trkpt lat="39.2212718" lon="-6.1464390">
<ele>732.190552</ele>
<time>2016-03-05T07:40:28.042Z</time>
</trkpt>
<trkpt lat="39.2212718" lon="-6.1464240">
<ele>732.647766</ele>
<time>2016-03-05T07:43:17.990Z</time>
</trkpt>
<trkpt lat="39.2211328" lon="-6.1462510">
<ele>734.567993</ele>
<time>2016-03-05T07:43:33.974Z</time>
</trkpt>
<trkpt lat="39.2210098" lon="-6.1461180">
<ele>736.518677</ele>
<time>2016-03-05T07:43:49.958Z</time>
</trkpt>
<trkpt lat="39.2209348" lon="-6.1460210">
<ele>738.438965</ele>
<time>2016-03-05T07:44:15.014Z</time>
</trkpt>
<trkpt lat="39.2208818" lon="-6.1459500">
<ele>738.896118</ele>
<time>2016-03-05T07:44:34.973Z</time>
</trkpt>
<trkpt lat="39.2208108" lon="-6.1458280">
<ele>739.383850</ele>
<time>2016-03-05T07:44:46.032Z</time>
</trkpt>
<trkpt lat="39.2208618" lon="-6.1455760">
<ele>741.304138</ele>
<time>2016-03-05T07:45:02.966Z</time>
</trkpt>
<trkpt lat="39.2209268" lon="-6.1453430">
<ele>743.711975</ele>
<time>2016-03-05T07:45:19.037Z</time>
</trkpt>
<trkpt lat="39.2208818" lon="-6.1450850">
<ele>746.119873</ele>
<time>2016-03-05T07:45:35.971Z</time>
</trkpt>
<trkpt lat="39.2208608" lon="-6.1449340">
<ele>747.552490</ele>
<time>2016-03-05T07:47:12.998Z</time>
</trkpt>
<trkpt lat="39.2208638" lon="-6.1448570">
<ele>747.552490</ele>
<time>2016-03-05T07:47:25.008Z</time>
</trkpt>
<trkpt lat="39.2208378" lon="-6.1447720">
<ele>747.552490</ele>
<time>2016-03-05T07:48:12.960Z</time>
</trkpt>
<trkpt lat="39.2207968" lon="-6.1446750">
<ele>748.040161</ele>
<time>2016-03-05T07:49:11.971Z</time>
</trkpt>
<trkpt lat="39.2206798" lon="-6.1443380">
<ele>748.040161</ele>
<time>2016-03-05T07:49:34.003Z</time>
</trkpt>
<trkpt lat="39.2204938" lon="-6.1440640">
<ele>748.527832</ele>
<time>2016-03-05T07:49:53.962Z</time>
</trkpt>
<trkpt lat="39.2204498" lon="-6.1439910">
<ele>748.527832</ele>
<time>2016-03-05T07:50:00.960Z</time>
</trkpt>
<trkpt lat="39.2204218" lon="-6.1438350">
<ele>748.527832</ele>
<time>2016-03-05T07:50:12.970Z</time>
</trkpt>
<trkpt lat="39.2204118" lon="-6.1437560">
<ele>748.527832</ele>
<time>2016-03-05T07:50:17.981Z</time>
</trkpt>
<trkpt lat="39.2203238" lon="-6.1435270">
<ele>748.527832</ele>
<time>2016-03-05T07:50:35.002Z</time>
</trkpt>
<trkpt lat="39.2202348" lon="-6.1432930">
<ele>748.985046</ele>
<time>2016-03-05T07:50:54.010Z</time>
</trkpt>
<trkpt lat="39.2201788" lon="-6.1431260">
<ele>748.985046</ele>
<time>2016-03-05T07:51:09.994Z</time>
</trkpt>
<trkpt lat="39.2201748" lon="-6.1429780">
<ele>749.503174</ele>
<time>2016-03-05T07:51:51.984Z</time>
</trkpt>
<trkpt lat="39.2200528" lon="-6.1426950">
<ele>749.960388</ele>
<time>2016-03-05T07:52:10.992Z</time>
</trkpt>
<trkpt lat="39.2199358" lon="-6.1424960">
<ele>750.448120</ele>
<time>2016-03-05T07:52:28.013Z</time>
</trkpt>
<trkpt lat="39.2198578" lon="-6.1424170">
<ele>751.423462</ele>
<time>2016-03-05T07:52:42.010Z</time>
</trkpt>
<trkpt lat="39.2197898" lon="-6.1423510">
<ele>751.880676</ele>
<time>2016-03-05T07:52:49.958Z</time>
</trkpt>
<trkpt lat="39.2196408" lon="-6.1421640">
<ele>752.856018</ele>
<time>2016-03-05T07:53:08.016Z</time>
</trkpt>
<trkpt lat="39.2196378" lon="-6.1420340">
<ele>754.288574</ele>
<time>2016-03-05T07:53:20.976Z</time>
</trkpt>
<trkpt lat="39.2196098" lon="-6.1418169">
<ele>755.263916</ele>
<time>2016-03-05T07:53:37.997Z</time>
</trkpt>
<trkpt lat="39.2196178" lon="-6.1417159">
<ele>757.671875</ele>
<time>2016-03-05T07:55:03.014Z</time>
</trkpt>
<trkpt lat="39.2196688" lon="-6.1416939">
<ele>757.671875</ele>
<time>2016-03-05T07:55:10.963Z</time>
</trkpt>
<trkpt lat="39.2197768" lon="-6.1414699">
<ele>759.104370</ele>
<time>2016-03-05T07:55:29.021Z</time>
</trkpt>
<trkpt lat="39.2198098" lon="-6.1412049">
<ele>761.512268</ele>
<time>2016-03-05T07:55:46.992Z</time>
</trkpt>
<trkpt lat="39.2199008" lon="-6.1410859">
<ele>763.889771</ele>
<time>2016-03-05T07:56:07.037Z</time>
</trkpt>
<trkpt lat="39.2200358" lon="-6.1410529">
<ele>765.352783</ele>
<time>2016-03-05T07:56:35.981Z</time>
</trkpt>
<trkpt lat="39.2201368" lon="-6.1410729">
<ele>765.352783</ele>
<time>2016-03-05T07:57:01.037Z</time>
</trkpt>
<trkpt lat="39.2202618" lon="-6.1409769">
<ele>765.352783</ele>
<time>2016-03-05T07:57:26.957Z</time>
</trkpt>
<trkpt lat="39.2204028" lon="-6.1408459">
<ele>767.273071</ele>
<time>2016-03-05T07:59:00.960Z</time>
</trkpt>
<trkpt lat="39.2204828" lon="-6.1408120">
<ele>768.217896</ele>
<time>2016-03-05T07:59:14.006Z</time>
</trkpt>
<trkpt lat="39.2206338" lon="-6.1406970">
<ele>769.680969</ele>
<time>2016-03-05T07:59:28.003Z</time>
</trkpt>
<trkpt lat="39.2207658" lon="-6.1405560">
<ele>772.088928</ele>
<time>2016-03-05T07:59:47.962Z</time>
</trkpt>
<trkpt lat="39.2208438" lon="-6.1404080">
<ele>774.009094</ele>
<time>2016-03-05T08:00:01.008Z</time>
</trkpt>
<trkpt lat="39.2209409" lon="-6.1402460">
<ele>776.386536</ele>
<time>2016-03-05T08:00:15.005Z</time>
</trkpt>
<trkpt lat="39.2210339" lon="-6.1400819">
<ele>778.306824</ele>
<time>2016-03-05T08:00:30.038Z</time>
</trkpt>
<trkpt lat="39.2210829" lon="-6.1399339">
<ele>780.257507</ele>
<time>2016-03-05T08:00:42.998Z</time>
</trkpt>
<trkpt lat="39.2211049" lon="-6.1396999">
<ele>783.610291</ele>
<time>2016-03-05T08:01:07.018Z</time>
</trkpt>
<trkpt lat="39.2210869" lon="-6.1395669">
<ele>786.018250</ele>
<time>2016-03-05T08:01:21.965Z</time>
</trkpt>
<trkpt lat="39.2210229" lon="-6.1394249">
<ele>787.938538</ele>
<time>2016-03-05T08:01:54.970Z</time>
</trkpt>
<trkpt lat="39.2209129" lon="-6.1392799">
<ele>790.834106</ele>
<time>2016-03-05T08:02:39.984Z</time>
</trkpt>
<trkpt lat="39.2208119" lon="-6.1391139">
<ele>791.291321</ele>
<time>2016-03-05T08:02:53.030Z</time>
</trkpt>
<trkpt lat="39.2207269" lon="-6.1389349">
<ele>793.211487</ele>
<time>2016-03-05T08:03:07.978Z</time>
</trkpt>
<trkpt lat="39.2206689" lon="-6.1388129">
<ele>795.619446</ele>
<time>2016-03-05T08:03:21.024Z</time>
</trkpt>
<trkpt lat="39.2206529" lon="-6.1386659">
<ele>799.002686</ele>
<time>2016-03-05T08:04:03.014Z</time>
</trkpt>
<trkpt lat="39.2206709" lon="-6.1385349">
<ele>799.459900</ele>
<time>2016-03-05T08:05:51.014Z</time>
</trkpt>
<trkpt lat="39.2206739" lon="-6.1383879">
<ele>800.922974</ele>
<time>2016-03-05T08:06:03.974Z</time>
</trkpt>
<trkpt lat="39.2206699" lon="-6.1382759">
<ele>802.843201</ele>
<time>2016-03-05T08:06:22.032Z</time>
</trkpt>
<trkpt lat="39.2206349" lon="-6.1381019">
<ele>803.330933</ele>
<time>2016-03-05T08:06:34.992Z</time>
</trkpt>
<trkpt lat="39.2206089" lon="-6.1380129">
<ele>804.763428</ele>
<time>2016-03-05T08:06:41.990Z</time>
</trkpt>
<trkpt lat="39.2205539" lon="-6.1378249">
<ele>806.195984</ele>
<time>2016-03-05T08:06:57.024Z</time>
</trkpt>
<trkpt lat="39.2205159" lon="-6.1376949">
<ele>806.683716</ele>
<time>2016-03-05T08:07:07.997Z</time>
</trkpt>
<trkpt lat="39.2204939" lon="-6.1375629">
<ele>807.628540</ele>
<time>2016-03-05T08:07:13.958Z</time>
</trkpt>
<trkpt lat="39.2204609" lon="-6.1373539">
<ele>809.091614</ele>
<time>2016-03-05T08:07:30.029Z</time>
</trkpt>
<trkpt lat="39.2204279" lon="-6.1369939">
<ele>814.364685</ele>
<time>2016-03-05T08:08:19.968Z</time>
</trkpt>
<trkpt lat="39.2204229" lon="-6.1368179">
<ele>815.340027</ele>
<time>2016-03-05T08:08:36.989Z</time>
</trkpt>
<trkpt lat="39.2204229" lon="-6.1365999">
<ele>816.284912</ele>
<time>2016-03-05T08:08:50.986Z</time>
</trkpt>
<trkpt lat="39.2204589" lon="-6.1363229">
<ele>817.260254</ele>
<time>2016-03-05T08:09:04.032Z</time>
</trkpt>
<trkpt lat="39.2205449" lon="-6.1361139">
<ele>818.205078</ele>
<time>2016-03-05T08:09:18.979Z</time>
</trkpt>
<trkpt lat="39.2206209" lon="-6.1359479">
<ele>819.180481</ele>
<time>2016-03-05T08:09:30.989Z</time>
</trkpt>
<trkpt lat="39.2207269" lon="-6.1357009">
<ele>820.613037</ele>
<time>2016-03-05T08:09:44.035Z</time>
</trkpt>
<trkpt lat="39.2208189" lon="-6.1354859">
<ele>821.588379</ele>
<time>2016-03-05T08:10:02.006Z</time>
</trkpt>
<trkpt lat="39.2208809" lon="-6.1352559">
<ele>823.020935</ele>
<time>2016-03-05T08:10:17.040Z</time>
</trkpt>
<trkpt lat="39.2208939" lon="-6.1350289">
<ele>825.428894</ele>
<time>2016-03-05T08:10:54.019Z</time>
</trkpt>
<trkpt lat="39.2208969" lon="-6.1349469">
<ele>825.428894</ele>
<time>2016-03-05T08:11:03.005Z</time>
</trkpt>
<trkpt lat="39.2208599" lon="-6.1347119">
<ele>826.404236</ele>
<time>2016-03-05T08:11:20.026Z</time>
</trkpt>
<trkpt lat="39.2208379" lon="-6.1345419">
<ele>827.349060</ele>
<time>2016-03-05T08:11:34.973Z</time>
</trkpt>
<trkpt lat="39.2208229" lon="-6.1344219">
<ele>828.324524</ele>
<time>2016-03-05T08:12:40.982Z</time>
</trkpt>
<trkpt lat="39.2207769" lon="-6.1343219">
<ele>828.781738</ele>
<time>2016-03-05T08:13:41.981Z</time>
</trkpt>
<trkpt lat="39.2206689" lon="-6.1340839">
<ele>829.269348</ele>
<time>2016-03-05T08:13:57.014Z</time>
</trkpt>
<trkpt lat="39.2206199" lon="-6.1339779">
<ele>829.757080</ele>
<time>2016-03-05T08:14:09.024Z</time>
</trkpt>
<trkpt lat="39.2205599" lon="-6.1337548">
<ele>830.732422</ele>
<time>2016-03-05T08:17:28.003Z</time>
</trkpt>
<trkpt lat="39.2204829" lon="-6.1335018">
<ele>831.677307</ele>
<time>2016-03-05T08:17:45.024Z</time>
</trkpt>
<trkpt lat="39.2204369" lon="-6.1333528">
<ele>832.652649</ele>
<time>2016-03-05T08:18:15.005Z</time>
</trkpt>
<trkpt lat="39.2203329" lon="-6.1330718">
<ele>834.572937</ele>
<time>2016-03-05T08:18:32.976Z</time>
</trkpt>
<trkpt lat="39.2202919" lon="-6.1329208">
<ele>836.493103</ele>
<time>2016-03-05T08:18:56.995Z</time>
</trkpt>
<trkpt lat="39.2204479" lon="-6.1327598">
<ele>837.437988</ele>
<time>2016-03-05T08:20:20.026Z</time>
</trkpt>
<trkpt lat="39.2205619" lon="-6.1325708">
<ele>839.358276</ele>
<time>2016-03-05T08:20:36.010Z</time>
</trkpt>
<trkpt lat="39.2206499" lon="-6.1324208">
<ele>840.333618</ele>
<time>2016-03-05T08:20:50.006Z</time>
</trkpt>
<trkpt lat="39.2207039" lon="-6.1322948">
<ele>840.333618</ele>
<time>2016-03-05T08:21:00.029Z</time>
</trkpt>
<trkpt lat="39.2207879" lon="-6.1319778">
<ele>838.901062</ele>
<time>2016-03-05T08:21:30.960Z</time>
</trkpt>
<trkpt lat="39.2208089" lon="-6.1317918">
<ele>838.413330</ele>
<time>2016-03-05T08:24:55.037Z</time>
</trkpt>
<trkpt lat="39.2208579" lon="-6.1316678">
<ele>838.413330</ele>
<time>2016-03-05T08:26:00.960Z</time>
</trkpt>
<trkpt lat="39.2209699" lon="-6.1317098">
<ele>838.413330</ele>
<time>2016-03-05T08:28:24.989Z</time>
</trkpt>
<trkpt lat="39.2211550" lon="-6.1317928">
<ele>833.597473</ele>
<time>2016-03-05T08:30:21.974Z</time>
</trkpt>
<trkpt lat="39.2212530" lon="-6.1318228">
<ele>832.164917</ele>
<time>2016-03-05T08:30:35.021Z</time>
</trkpt>
<trkpt lat="39.2213380" lon="-6.1318168">
<ele>830.244690</ele>
<time>2016-03-05T08:30:47.030Z</time>
</trkpt>
<trkpt lat="39.2214240" lon="-6.1318178">
<ele>829.269348</ele>
<time>2016-03-05T08:30:56.966Z</time>
</trkpt>
<trkpt lat="39.2216140" lon="-6.1318148">
<ele>825.428894</ele>
<time>2016-03-05T08:31:20.986Z</time>
</trkpt>
<trkpt lat="39.2217170" lon="-6.1318128">
<ele>823.508667</ele>
<time>2016-03-05T08:31:34.982Z</time>
</trkpt>
<trkpt lat="39.2218300" lon="-6.1318308">
<ele>820.125366</ele>
<time>2016-03-05T08:31:57.014Z</time>
</trkpt>
<trkpt lat="39.2219410" lon="-6.1318238">
<ele>819.180481</ele>
<time>2016-03-05T08:32:07.987Z</time>
</trkpt>
<trkpt lat="39.2220340" lon="-6.1318078">
<ele>817.747864</ele>
<time>2016-03-05T08:32:19.997Z</time>
</trkpt>
<trkpt lat="39.2221920" lon="-6.1317679">
<ele>815.827698</ele>
<time>2016-03-05T08:32:39.005Z</time>
</trkpt>
<trkpt lat="39.2223010" lon="-6.1316979">
<ele>813.876953</ele>
<time>2016-03-05T08:32:56.976Z</time>
</trkpt>
<trkpt lat="39.2223840" lon="-6.1316279">
<ele>811.956665</ele>
<time>2016-03-05T08:33:10.022Z</time>
</trkpt>
<trkpt lat="39.2224760" lon="-6.1315479">
<ele>809.091614</ele>
<time>2016-03-05T08:35:59.021Z</time>
</trkpt>
<trkpt lat="39.2225710" lon="-6.1313809">
<ele>807.628540</ele>
<time>2016-03-05T08:36:32.976Z</time>
</trkpt>
<trkpt lat="39.2226440" lon="-6.1311879">
<ele>805.251099</ele>
<time>2016-03-05T08:36:53.021Z</time>
</trkpt>
<trkpt lat="39.2227760" lon="-6.1309709">
<ele>802.843201</ele>
<time>2016-03-05T08:37:21.014Z</time>
</trkpt>
<trkpt lat="39.2228820" lon="-6.1308469">
<ele>800.922974</ele>
<time>2016-03-05T08:37:38.035Z</time>
</trkpt>
<trkpt lat="39.2230580" lon="-6.1306939">
<ele>797.539734</ele>
<time>2016-03-05T08:38:03.005Z</time>
</trkpt>
<trkpt lat="39.2231990" lon="-6.1305509">
<ele>795.162231</ele>
<time>2016-03-05T08:38:20.026Z</time>
</trkpt>
<trkpt lat="39.2233920" lon="-6.1304179">
<ele>789.371033</ele>
<time>2016-03-05T08:39:00.029Z</time>
</trkpt>
<trkpt lat="39.2234790" lon="-6.1303469">
<ele>783.122681</ele>
<time>2016-03-05T08:39:16.013Z</time>
</trkpt>
<trkpt lat="39.2236370" lon="-6.1302469">
<ele>783.122681</ele>
<time>2016-03-05T08:39:33.984Z</time>
</trkpt>
<trkpt lat="39.2239140" lon="-6.1301159">
<ele>780.257507</ele>
<time>2016-03-05T08:40:57.014Z</time>
</trkpt>
<trkpt lat="39.2240120" lon="-6.1300549">
<ele>778.824951</ele>
<time>2016-03-05T08:41:32.957Z</time>
</trkpt>
<trkpt lat="39.2241160" lon="-6.1299079">
<ele>776.874268</ele>
<time>2016-03-05T08:41:47.990Z</time>
</trkpt>
<trkpt lat="39.2241780" lon="-6.1297809">
<ele>775.441711</ele>
<time>2016-03-05T08:42:01.037Z</time>
</trkpt>
<trkpt lat="39.2243120" lon="-6.1297849">
<ele>772.546082</ele>
<time>2016-03-05T08:42:17.971Z</time>
</trkpt>
<trkpt lat="39.2244930" lon="-6.1297909">
<ele>768.705627</ele>
<time>2016-03-05T08:42:36.029Z</time>
</trkpt>
<trkpt lat="39.2246510" lon="-6.1297429">
<ele>765.352783</ele>
<time>2016-03-05T08:47:10.003Z</time>
</trkpt>
<trkpt lat="39.2247010" lon="-6.1295349">
<ele>765.352783</ele>
<time>2016-03-05T08:47:32.986Z</time>
</trkpt>
<trkpt lat="39.2246740" lon="-6.1293989">
<ele>765.352783</ele>
<time>2016-03-05T08:47:41.971Z</time>
</trkpt>
<trkpt lat="39.2246980" lon="-6.1292749">
<ele>765.352783</ele>
<time>2016-03-05T08:50:11.962Z</time>
</trkpt>
<trkpt lat="39.2248170" lon="-6.1289649">
<ele>765.352783</ele>
<time>2016-03-05T08:50:32.006Z</time>
</trkpt>
<trkpt lat="39.2249170" lon="-6.1287389">
<ele>765.352783</ele>
<time>2016-03-05T08:50:49.027Z</time>
</trkpt>
<trkpt lat="39.2249620" lon="-6.1286079">
<ele>762.944885</ele>
<time>2016-03-05T08:51:19.008Z</time>
</trkpt>
<trkpt lat="39.2249990" lon="-6.1284099">
<ele>760.049316</ele>
<time>2016-03-05T08:52:11.021Z</time>
</trkpt>
<trkpt lat="39.2249950" lon="-6.1282209">
<ele>757.671875</ele>
<time>2016-03-05T08:57:16.963Z</time>
</trkpt>
<trkpt lat="39.2249231" lon="-6.1279698">
<ele>755.721069</ele>
<time>2016-03-05T08:57:58.003Z</time>
</trkpt>
<trkpt lat="39.2248301" lon="-6.1277228">
<ele>752.856018</ele>
<time>2016-03-05T08:58:15.974Z</time>
</trkpt>
<trkpt lat="39.2247121" lon="-6.1275528">
<ele>750.935730</ele>
<time>2016-03-05T08:58:32.995Z</time>
</trkpt>
<trkpt lat="39.2246261" lon="-6.1274588">
<ele>749.960388</ele>
<time>2016-03-05T08:58:48.979Z</time>
</trkpt>
<trkpt lat="39.2244831" lon="-6.1273428">
<ele>749.503174</ele>
<time>2016-03-05T08:59:28.982Z</time>
</trkpt>
<trkpt lat="39.2244161" lon="-6.1272048">
<ele>750.448120</ele>
<time>2016-03-05T09:00:00.000Z</time>
</trkpt>
<trkpt lat="39.2243961" lon="-6.1269648">
<ele>749.503174</ele>
<time>2016-03-05T09:00:24.970Z</time>
</trkpt>
<trkpt lat="39.2243191" lon="-6.1266598">
<ele>748.527832</ele>
<time>2016-03-05T09:00:41.990Z</time>
</trkpt>
<trkpt lat="39.2242651" lon="-6.1265348">
<ele>747.064819</ele>
<time>2016-03-05T09:00:50.026Z</time>
</trkpt>
<trkpt lat="39.2240681" lon="-6.1262828">
<ele>746.119873</ele>
<time>2016-03-05T09:01:04.022Z</time>
</trkpt>
<trkpt lat="39.2239391" lon="-6.1260728">
<ele>745.175049</ele>
<time>2016-03-05T09:01:16.032Z</time>
</trkpt>
<trkpt lat="39.2238511" lon="-6.1259048">
<ele>744.199707</ele>
<time>2016-03-05T09:01:56.035Z</time>
</trkpt>
<trkpt lat="39.2237631" lon="-6.1257028">
<ele>742.279480</ele>
<time>2016-03-05T09:02:21.005Z</time>
</trkpt>
<trkpt lat="39.2238081" lon="-6.1255838">
<ele>741.304138</ele>
<time>2016-03-05T09:02:33.014Z</time>
</trkpt>
<trkpt lat="39.2239021" lon="-6.1253848">
<ele>738.438965</ele>
<time>2016-03-05T09:02:52.973Z</time>
</trkpt>
<trkpt lat="39.2239821" lon="-6.1252358">
<ele>736.031067</ele>
<time>2016-03-05T09:03:13.968Z</time>
</trkpt>
<trkpt lat="39.2240261" lon="-6.1250758">
<ele>735.055725</ele>
<time>2016-03-05T09:03:23.040Z</time>
</trkpt>
<trkpt lat="39.2240991" lon="-6.1247858">
<ele>732.647766</ele>
<time>2016-03-05T09:03:48.010Z</time>
</trkpt>
<trkpt lat="39.2241221" lon="-6.1244908">
<ele>728.807312</ele>
<time>2016-03-05T09:04:12.979Z</time>
</trkpt>
<trkpt lat="39.2240951" lon="-6.1243288">
<ele>726.887085</ele>
<time>2016-03-05T09:04:26.026Z</time>
</trkpt>
<trkpt lat="39.2240471" lon="-6.1241438">
<ele>724.966797</ele>
<time>2016-03-05T09:04:38.986Z</time>
</trkpt>
<trkpt lat="39.2240211" lon="-6.1238828">
<ele>722.101685</ele>
<time>2016-03-05T09:04:59.981Z</time>
</trkpt>
<trkpt lat="39.2240151" lon="-6.1237248">
<ele>720.150940</ele>
<time>2016-03-05T09:05:13.978Z</time>
</trkpt>
<trkpt lat="39.2239981" lon="-6.1234358">
<ele>716.798157</ele>
<time>2016-03-05T09:05:46.032Z</time>
</trkpt>
<trkpt lat="39.2239691" lon="-6.1232278">
<ele>715.853333</ele>
<time>2016-03-05T09:06:05.990Z</time>
</trkpt>
<trkpt lat="39.2239581" lon="-6.1230628">
<ele>714.390259</ele>
<time>2016-03-05T09:06:19.037Z</time>
</trkpt>
<trkpt lat="39.2239311" lon="-6.1229208">
<ele>713.445374</ele>
<time>2016-03-05T09:06:30.960Z</time>
</trkpt>
<trkpt lat="39.2238061" lon="-6.1226637">
<ele>709.604919</ele>
<time>2016-03-05T09:09:43.027Z</time>
</trkpt>
<trkpt lat="39.2237091" lon="-6.1223897">
<ele>709.604919</ele>
<time>2016-03-05T09:10:00.998Z</time>
</trkpt>
<trkpt lat="39.2235931" lon="-6.1222237">
<ele>709.604919</ele>
<time>2016-03-05T09:10:14.995Z</time>
</trkpt>
<trkpt lat="39.2234431" lon="-6.1220127">
<ele>709.604919</ele>
<time>2016-03-05T09:10:32.016Z</time>
</trkpt>
<trkpt lat="39.2233071" lon="-6.1217737">
<ele>710.062134</ele>
<time>2016-03-05T09:10:49.037Z</time>
</trkpt>
<trkpt lat="39.2232141" lon="-6.1216037">
<ele>710.062134</ele>
<time>2016-03-05T09:11:00.960Z</time>
</trkpt>
<trkpt lat="39.2231401" lon="-6.1215177">
<ele>710.062134</ele>
<time>2016-03-05T09:11:08.995Z</time>
</trkpt>
<trkpt lat="39.2230111" lon="-6.1213247">
<ele>710.062134</ele>
<time>2016-03-05T09:11:45.024Z</time>
</trkpt>
<trkpt lat="39.2228901" lon="-6.1211757">
<ele>710.062134</ele>
<time>2016-03-05T09:11:59.971Z</time>
</trkpt>
<trkpt lat="39.2227691" lon="-6.1210787">
<ele>711.525085</ele>
<time>2016-03-05T09:12:27.965Z</time>
</trkpt>
<trkpt lat="39.2225641" lon="-6.1210097">
<ele>714.390259</ele>
<time>2016-03-05T09:15:40.032Z</time>
</trkpt>
<trkpt lat="39.2224551" lon="-6.1207967">
<ele>714.390259</ele>
<time>2016-03-05T09:15:59.990Z</time>
</trkpt>
<trkpt lat="39.2223421" lon="-6.1206967">
<ele>714.877869</ele>
<time>2016-03-05T09:16:12.000Z</time>
</trkpt>
<trkpt lat="39.2221921" lon="-6.1205487">
<ele>715.365601</ele>
<time>2016-03-05T09:16:25.997Z</time>
</trkpt>
<trkpt lat="39.2221221" lon="-6.1204077">
<ele>715.365601</ele>
<time>2016-03-05T09:16:34.982Z</time>
</trkpt>
<trkpt lat="39.2220431" lon="-6.1202757">
<ele>716.798157</ele>
<time>2016-03-05T09:16:48.029Z</time>
</trkpt>
<trkpt lat="39.2219091" lon="-6.1201537">
<ele>718.230713</ele>
<time>2016-03-05T09:17:02.026Z</time>
</trkpt>
<trkpt lat="39.2217171" lon="-6.1199367">
<ele>720.150940</ele>
<time>2016-03-05T09:17:23.021Z</time>
</trkpt>
<trkpt lat="39.2215771" lon="-6.1198277">
<ele>720.638672</ele>
<time>2016-03-05T09:17:35.030Z</time>
</trkpt>
<trkpt lat="39.2214881" lon="-6.1197247">
<ele>721.126282</ele>
<time>2016-03-05T09:17:46.003Z</time>
</trkpt>
<trkpt lat="39.2214021" lon="-6.1195347">
<ele>721.614014</ele>
<time>2016-03-05T09:17:58.963Z</time>
</trkpt>
<trkpt lat="39.2212431" lon="-6.1193927">
<ele>722.101685</ele>
<time>2016-03-05T09:18:13.997Z</time>
</trkpt>
<trkpt lat="39.2211591" lon="-6.1192456">
<ele>723.534241</ele>
<time>2016-03-05T09:18:27.994Z</time>
</trkpt>
<trkpt lat="39.2209641" lon="-6.1189786">
<ele>724.479065</ele>
<time>2016-03-05T09:18:45.965Z</time>
</trkpt>
<trkpt lat="39.2207471" lon="-6.1187996">
<ele>726.399353</ele>
<time>2016-03-05T09:19:09.984Z</time>
</trkpt>
<trkpt lat="39.2205401" lon="-6.1185546">
<ele>728.807312</ele>
<time>2016-03-05T09:19:34.003Z</time>
</trkpt>
<trkpt lat="39.2203741" lon="-6.1183516">
<ele>730.270264</ele>
<time>2016-03-05T09:19:53.962Z</time>
</trkpt>
<trkpt lat="39.2202301" lon="-6.1181926">
<ele>731.702881</ele>
<time>2016-03-05T09:20:08.995Z</time>
</trkpt>
<trkpt lat="39.2200951" lon="-6.1180676">
<ele>733.135437</ele>
<time>2016-03-05T09:20:22.992Z</time>
</trkpt>
<trkpt lat="39.2200121" lon="-6.1179196">
<ele>734.110779</ele>
<time>2016-03-05T09:20:36.038Z</time>
</trkpt>
<trkpt lat="39.2198601" lon="-6.1177756">
<ele>735.543335</ele>
<time>2016-03-05T09:20:50.986Z</time>
</trkpt>
<trkpt lat="39.2197181" lon="-6.1176316">
<ele>736.518677</ele>
<time>2016-03-05T09:21:11.981Z</time>
</trkpt>
<trkpt lat="39.2196561" lon="-6.1174786">
<ele>737.463623</ele>
<time>2016-03-05T09:21:25.978Z</time>
</trkpt>
<trkpt lat="39.2196161" lon="-6.1171386">
<ele>738.896118</ele>
<time>2016-03-05T09:22:10.992Z</time>
</trkpt>
<trkpt lat="39.2195981" lon="-6.1169166">
<ele>739.871460</ele>
<time>2016-03-05T09:22:24.989Z</time>
</trkpt>
<trkpt lat="39.2195691" lon="-6.1166496">
<ele>744.199707</ele>
<time>2016-03-05T09:25:20.035Z</time>
</trkpt>
<trkpt lat="39.2196461" lon="-6.1165266">
<ele>744.199707</ele>
<time>2016-03-05T09:25:31.958Z</time>
</trkpt>
<trkpt lat="39.2197851" lon="-6.1162426">
<ele>743.254822</ele>
<time>2016-03-05T09:25:53.990Z</time>
</trkpt>
<trkpt lat="39.2197761" lon="-6.1160016">
<ele>742.279480</ele>
<time>2016-03-05T09:27:26.006Z</time>
</trkpt>
<trkpt lat="39.2196861" lon="-6.1157706">
<ele>742.279480</ele>
<time>2016-03-05T09:27:50.026Z</time>
</trkpt>
<trkpt lat="39.2196511" lon="-6.1156486">
<ele>743.254822</ele>
<time>2016-03-05T09:27:59.962Z</time>
</trkpt>
<trkpt lat="39.2195701" lon="-6.1154506">
<ele>744.199707</ele>
<time>2016-03-05T09:28:14.995Z</time>
</trkpt>
<trkpt lat="39.2195131" lon="-6.1152596">
<ele>745.175049</ele>
<time>2016-03-05T09:28:28.992Z</time>
</trkpt>
<trkpt lat="39.2195091" lon="-6.1151416">
<ele>745.632263</ele>
<time>2016-03-05T09:28:35.990Z</time>
</trkpt>
<trkpt lat="39.2194891" lon="-6.1149426">
<ele>746.607605</ele>
<time>2016-03-05T09:28:49.987Z</time>
</trkpt>
<trkpt lat="39.2194971" lon="-6.1147576">
<ele>748.527832</ele>
<time>2016-03-05T09:29:03.034Z</time>
</trkpt>
<trkpt lat="39.2194801" lon="-6.1145435">
<ele>750.448120</ele>
<time>2016-03-05T09:29:21.005Z</time>
</trkpt>
<trkpt lat="39.2194731" lon="-6.1143405">
<ele>752.856018</ele>
<time>2016-03-05T09:29:35.002Z</time>
</trkpt>
<trkpt lat="39.2194501" lon="-6.1142275">
<ele>753.800903</ele>
<time>2016-03-05T09:29:43.037Z</time>
</trkpt>
<trkpt lat="39.2194301" lon="-6.1140495">
<ele>755.721069</ele>
<time>2016-03-05T09:29:54.960Z</time>
</trkpt>
<trkpt lat="39.2194121" lon="-6.1139075">
<ele>757.184143</ele>
<time>2016-03-05T09:30:04.982Z</time>
</trkpt>
<trkpt lat="39.2193711" lon="-6.1136965">
<ele>763.889771</ele>
<time>2016-03-05T09:30:22.003Z</time>
</trkpt>
<trkpt lat="39.2193281" lon="-6.1135545">
<ele>764.377441</ele>
<time>2016-03-05T09:30:36.000Z</time>
</trkpt>
<trkpt lat="39.2192311" lon="-6.1134695">
<ele>765.840515</ele>
<time>2016-03-05T09:30:48.010Z</time>
</trkpt>
<trkpt lat="39.2191591" lon="-6.1133185">
<ele>769.680969</ele>
<time>2016-03-05T09:31:03.994Z</time>
</trkpt>
<trkpt lat="39.2191541" lon="-6.1131685">
<ele>774.009094</ele>
<time>2016-03-05T09:31:16.003Z</time>
</trkpt>
<trkpt lat="39.2190901" lon="-6.1130595">
<ele>777.849609</ele>
<time>2016-03-05T09:31:50.995Z</time>
</trkpt>
<trkpt lat="39.2189421" lon="-6.1130955">
<ele>779.769836</ele>
<time>2016-03-05T09:32:13.978Z</time>
</trkpt>
<trkpt lat="39.2188701" lon="-6.1129395">
<ele>782.177734</ele>
<time>2016-03-05T09:32:27.974Z</time>
</trkpt>
<trkpt lat="39.2188321" lon="-6.1127765">
<ele>784.098022</ele>
<time>2016-03-05T09:33:04.003Z</time>
</trkpt>
<trkpt lat="39.2187741" lon="-6.1127185">
<ele>784.555176</ele>
<time>2016-03-05T09:34:12.000Z</time>
</trkpt>
<trkpt lat="39.2186961" lon="-6.1126785">
<ele>783.610291</ele>
<time>2016-03-05T09:35:04.013Z</time>
</trkpt>
<trkpt lat="39.2185011" lon="-6.1125835">
<ele>782.177734</ele>
<time>2016-03-05T09:35:28.032Z</time>
</trkpt>
<trkpt lat="39.2183791" lon="-6.1125965">
<ele>778.824951</ele>
<time>2016-03-05T09:36:10.022Z</time>
</trkpt>
<trkpt lat="39.2181751" lon="-6.1126315">
<ele>776.386536</ele>
<time>2016-03-05T09:37:20.006Z</time>
</trkpt>
<trkpt lat="39.2180431" lon="-6.1126755">
<ele>774.009094</ele>
<time>2016-03-05T09:37:34.003Z</time>
</trkpt>
<trkpt lat="39.2180751" lon="-6.1124525">
<ele>769.193298</ele>
<time>2016-03-05T09:39:46.022Z</time>
</trkpt>
<trkpt lat="39.2180761" lon="-6.1122415">
<ele>766.785339</ele>
<time>2016-03-05T09:40:07.018Z</time>
</trkpt>
<trkpt lat="39.2179151" lon="-6.1121225">
<ele>762.944885</ele>
<time>2016-03-05T09:48:39.024Z</time>
</trkpt>
<trkpt lat="39.2177431" lon="-6.1120225">
<ele>761.512268</ele>
<time>2016-03-05T09:48:56.995Z</time>
</trkpt>
<trkpt lat="39.2176191" lon="-6.1119765">
<ele>760.536926</ele>
<time>2016-03-05T09:49:09.005Z</time>
</trkpt>
<trkpt lat="39.2174991" lon="-6.1119105">
<ele>759.104370</ele>
<time>2016-03-05T09:49:21.965Z</time>
</trkpt>
<trkpt lat="39.2173901" lon="-6.1118275">
<ele>758.616699</ele>
<time>2016-03-05T09:49:35.962Z</time>
</trkpt>
<trkpt lat="39.2173221" lon="-6.1117275">
<ele>758.129028</ele>
<time>2016-03-05T09:49:49.008Z</time>
</trkpt>
<trkpt lat="39.2172081" lon="-6.1116055">
<ele>756.696533</ele>
<time>2016-03-05T09:50:01.018Z</time>
</trkpt>
<trkpt lat="39.2171121" lon="-6.1115235">
<ele>755.721069</ele>
<time>2016-03-05T09:50:11.990Z</time>
</trkpt>
<trkpt lat="39.2170481" lon="-6.1113975">
<ele>753.343689</ele>
<time>2016-03-05T09:50:34.022Z</time>
</trkpt>
<trkpt lat="39.2170241" lon="-6.1113025">
<ele>751.880676</ele>
<time>2016-03-05T09:51:05.040Z</time>
</trkpt>
<trkpt lat="39.2168521" lon="-6.1110744">
<ele>747.552490</ele>
<time>2016-03-05T09:51:38.995Z</time>
</trkpt>
<trkpt lat="39.2169331" lon="-6.1108734">
<ele>746.119873</ele>
<time>2016-03-05T09:51:52.992Z</time>
</trkpt>
<trkpt lat="39.2168931" lon="-6.1107634">
<ele>745.175049</ele>
<time>2016-03-05T09:52:03.965Z</time>
</trkpt>
<trkpt lat="39.2167651" lon="-6.1106594">
<ele>743.711975</ele>
<time>2016-03-05T09:52:15.024Z</time>
</trkpt>
<trkpt lat="39.2164871" lon="-6.1106934">
<ele>737.951294</ele>
<time>2016-03-05T09:52:46.992Z</time>
</trkpt>
<trkpt lat="39.2163241" lon="-6.1107314">
<ele>734.567993</ele>
<time>2016-03-05T09:53:06.000Z</time>
</trkpt>
<trkpt lat="39.2161571" lon="-6.1108054">
<ele>732.190552</ele>
<time>2016-03-05T09:53:25.958Z</time>
</trkpt>
<trkpt lat="39.2160301" lon="-6.1108494">
<ele>729.782654</ele>
<time>2016-03-05T09:53:44.016Z</time>
</trkpt>
<trkpt lat="39.2159111" lon="-6.1108564">
<ele>725.942139</ele>
<time>2016-03-05T09:53:56.976Z</time>
</trkpt>
<trkpt lat="39.2157711" lon="-6.1108624">
<ele>723.046570</ele>
<time>2016-03-05T09:54:17.971Z</time>
</trkpt>
<trkpt lat="39.2156311" lon="-6.1107784">
<ele>721.614014</ele>
<time>2016-03-05T09:54:36.029Z</time>
</trkpt>
<trkpt lat="39.2154711" lon="-6.1107304">
<ele>720.150940</ele>
<time>2016-03-05T09:54:52.013Z</time>
</trkpt>
<trkpt lat="39.2153311" lon="-6.1107154">
<ele>718.230713</ele>
<time>2016-03-05T09:55:06.010Z</time>
</trkpt>
<trkpt lat="39.2151831" lon="-6.1107144">
<ele>716.310486</ele>
<time>2016-03-05T09:55:18.970Z</time>
</trkpt>
<trkpt lat="39.2150381" lon="-6.1106514">
<ele>714.877869</ele>
<time>2016-03-05T09:55:34.003Z</time>
</trkpt>
<trkpt lat="39.2149501" lon="-6.1107124">
<ele>712.957703</ele>
<time>2016-03-05T09:55:51.974Z</time>
</trkpt>
<trkpt lat="39.2150491" lon="-6.1107854">
<ele>711.525085</ele>
<time>2016-03-05T09:56:03.984Z</time>
</trkpt>
<trkpt lat="39.2150061" lon="-6.1108284">
<ele>709.604919</ele>
<time>2016-03-05T09:56:15.043Z</time>
</trkpt>
<trkpt lat="39.2148821" lon="-6.1108244">
<ele>708.141846</ele>
<time>2016-03-05T09:56:28.003Z</time>
</trkpt>
<trkpt lat="39.2147231" lon="-6.1108174">
<ele>704.789063</ele>
<time>2016-03-05T09:56:55.997Z</time>
</trkpt>
<trkpt lat="39.2145551" lon="-6.1107154">
<ele>702.381104</ele>
<time>2016-03-05T09:57:15.005Z</time>
</trkpt>
<trkpt lat="39.2145081" lon="-6.1107634">
<ele>700.460938</ele>
<time>2016-03-05T09:57:27.014Z</time>
</trkpt>
<trkpt lat="39.2145781" lon="-6.1109474">
<ele>699.028320</ele>
<time>2016-03-05T09:57:41.011Z</time>
</trkpt>
<trkpt lat="39.2147411" lon="-6.1111234">
<ele>696.620422</ele>
<time>2016-03-05T09:58:05.030Z</time>
</trkpt>
<trkpt lat="39.2148491" lon="-6.1112244">
<ele>695.157349</ele>
<time>2016-03-05T09:58:17.990Z</time>
</trkpt>
<trkpt lat="39.2149481" lon="-6.1114104">
<ele>693.237061</ele>
<time>2016-03-05T09:58:59.981Z</time>
</trkpt>
<trkpt lat="39.2148561" lon="-6.1115664">
<ele>691.804565</ele>
<time>2016-03-05T09:59:39.034Z</time>
</trkpt>
<trkpt lat="39.2147151" lon="-6.1116504">
<ele>688.908936</ele>
<time>2016-03-05T09:59:57.005Z</time>
</trkpt>
<trkpt lat="39.2146131" lon="-6.1116714">
<ele>686.531494</ele>
<time>2016-03-05T10:00:11.002Z</time>
</trkpt>
<trkpt lat="39.2144541" lon="-6.1117414">
<ele>684.123596</ele>
<time>2016-03-05T10:00:28.022Z</time>
</trkpt>
<trkpt lat="39.2142441" lon="-6.1119164">
<ele>679.307739</ele>
<time>2016-03-05T10:00:56.016Z</time>
</trkpt>
<trkpt lat="39.2140531" lon="-6.1120464">
<ele>674.034668</ele>
<time>2016-03-05T10:01:20.035Z</time>
</trkpt>
<trkpt lat="39.2138871" lon="-6.1121374">
<ele>670.651428</ele>
<time>2016-03-05T10:01:48.979Z</time>
</trkpt>
<trkpt lat="39.2136741" lon="-6.1122684">
<ele>667.755859</ele>
<time>2016-03-05T10:02:14.986Z</time>
</trkpt>
<trkpt lat="39.2135681" lon="-6.1123554">
<ele>665.835571</ele>
<time>2016-03-05T10:02:30.019Z</time>
</trkpt>
<trkpt lat="39.2134551" lon="-6.1124794">
<ele>663.458130</ele>
<time>2016-03-05T10:02:47.990Z</time>
</trkpt>
<trkpt lat="39.2132701" lon="-6.1125924">
<ele>657.209717</ele>
<time>2016-03-05T10:03:19.008Z</time>
</trkpt>
<trkpt lat="39.2131701" lon="-6.1125934">
<ele>655.289490</ele>
<time>2016-03-05T10:03:29.981Z</time>
</trkpt>
<trkpt lat="39.2129900" lon="-6.1125794">
<ele>651.418518</ele>
<time>2016-03-05T10:04:07.997Z</time>
</trkpt>
<trkpt lat="39.2128380" lon="-6.1125344">
<ele>648.065735</ele>
<time>2016-03-05T10:04:25.968Z</time>
</trkpt>
<trkpt lat="39.2126200" lon="-6.1125244">
<ele>644.225281</ele>
<time>2016-03-05T10:04:51.974Z</time>
</trkpt>
<trkpt lat="39.2124160" lon="-6.1126404">
<ele>640.384827</ele>
<time>2016-03-05T10:05:22.042Z</time>
</trkpt>
<trkpt lat="39.2122960" lon="-6.1126924">
<ele>639.409485</ele>
<time>2016-03-05T10:05:33.965Z</time>
</trkpt>
<trkpt lat="39.2123480" lon="-6.1125304">
<ele>634.624084</ele>
<time>2016-03-05T10:06:01.008Z</time>
</trkpt>
<trkpt lat="39.2124070" lon="-6.1124524">
<ele>634.624084</ele>
<time>2016-03-05T10:06:11.981Z</time>
</trkpt>
<trkpt lat="39.2123150" lon="-6.1124584">
<ele>633.161072</ele>
<time>2016-03-05T10:06:30.038Z</time>
</trkpt>
<trkpt lat="39.2122340" lon="-6.1124864">
<ele>631.728516</ele>
<time>2016-03-05T10:06:39.024Z</time>
</trkpt>
<trkpt lat="39.2120950" lon="-6.1125194">
<ele>626.424927</ele>
<time>2016-03-05T10:07:02.006Z</time>
</trkpt>
<trkpt lat="39.2119270" lon="-6.1126144">
<ele>625.967773</ele>
<time>2016-03-05T10:07:56.006Z</time>
</trkpt>
<trkpt lat="39.2117150" lon="-6.1126934">
<ele>621.639587</ele>
<time>2016-03-05T10:08:18.989Z</time>
</trkpt>
<trkpt lat="39.2114900" lon="-6.1127194">
<ele>617.311462</ele>
<time>2016-03-05T10:09:28.973Z</time>
</trkpt>
<trkpt lat="39.2113090" lon="-6.1127084">
<ele>612.983276</ele>
<time>2016-03-05T10:09:51.005Z</time>
</trkpt>
<trkpt lat="39.2110470" lon="-6.1126714">
<ele>608.167480</ele>
<time>2016-03-05T10:10:17.962Z</time>
</trkpt>
<trkpt lat="39.2108840" lon="-6.1126234">
<ele>606.247192</ele>
<time>2016-03-05T10:10:41.030Z</time>
</trkpt>
<trkpt lat="39.2108150" lon="-6.1125664">
<ele>603.351624</ele>
<time>2016-03-05T10:11:47.990Z</time>
</trkpt>
<trkpt lat="39.2105640" lon="-6.1124033">
<ele>599.998779</ele>
<time>2016-03-05T10:13:30.979Z</time>
</trkpt>
<trkpt lat="39.2104170" lon="-6.1124063">
<ele>599.053955</ele>
<time>2016-03-05T10:14:05.971Z</time>
</trkpt>
<trkpt lat="39.2102040" lon="-6.1123213">
<ele>593.262756</ele>
<time>2016-03-05T10:15:53.971Z</time>
</trkpt>
<trkpt lat="39.2101020" lon="-6.1122353">
<ele>591.830139</ele>
<time>2016-03-05T10:19:55.027Z</time>
</trkpt>
<trkpt lat="39.2099370" lon="-6.1120093">
<ele>587.989685</ele>
<time>2016-03-05T10:20:32.006Z</time>
</trkpt>
<trkpt lat="39.2098340" lon="-6.1118193">
<ele>584.149170</ele>
<time>2016-03-05T10:21:06.998Z</time>
</trkpt>
<trkpt lat="39.2096260" lon="-6.1116163">
<ele>580.278259</ele>
<time>2016-03-05T10:21:33.005Z</time>
</trkpt>
<trkpt lat="39.2095400" lon="-6.1114663">
<ele>577.413147</ele>
<time>2016-03-05T10:22:44.976Z</time>
</trkpt>
<trkpt lat="39.2093950" lon="-6.1113413">
<ele>575.492859</ele>
<time>2016-03-05T10:23:00.010Z</time>
</trkpt>
<trkpt lat="39.2091790" lon="-6.1112463">
<ele>573.084961</ele>
<time>2016-03-05T10:23:31.978Z</time>
</trkpt>
<trkpt lat="39.2090030" lon="-6.1110893">
<ele>570.677063</ele>
<time>2016-03-05T10:24:01.958Z</time>
</trkpt>
<trkpt lat="39.2088250" lon="-6.1110203">
<ele>567.811951</ele>
<time>2016-03-05T10:24:30.038Z</time>
</trkpt>
<trkpt lat="39.2086860" lon="-6.1109193">
<ele>566.348877</ele>
<time>2016-03-05T10:24:53.971Z</time>
</trkpt>
<trkpt lat="39.2085430" lon="-6.1107833">
<ele>565.403992</ele>
<time>2016-03-05T10:25:24.038Z</time>
</trkpt>
<trkpt lat="39.2084370" lon="-6.1105933">
<ele>562.996094</ele>
<time>2016-03-05T10:25:50.995Z</time>
</trkpt>
<trkpt lat="39.2082820" lon="-6.1103733">
<ele>558.667908</ele>
<time>2016-03-05T10:26:29.962Z</time>
</trkpt>
<trkpt lat="39.2081490" lon="-6.1101973">
<ele>555.772339</ele>
<time>2016-03-05T10:27:05.990Z</time>
</trkpt>
<trkpt lat="39.2080560" lon="-6.1100113">
<ele>551.444153</ele>
<time>2016-03-05T10:27:24.998Z</time>
</trkpt>
<trkpt lat="39.2078430" lon="-6.1099103">
<ele>549.523926</ele>
<time>2016-03-05T10:28:17.011Z</time>
</trkpt>
<trkpt lat="39.2077290" lon="-6.1098583">
<ele>547.603699</ele>
<time>2016-03-05T10:28:43.018Z</time>
</trkpt>
<trkpt lat="39.2076740" lon="-6.1096333">
<ele>541.842957</ele>
<time>2016-03-05T10:29:19.997Z</time>
</trkpt>
<trkpt lat="39.2075590" lon="-6.1095723">
<ele>539.922729</ele>
<time>2016-03-05T10:29:37.968Z</time>
</trkpt>
<trkpt lat="39.2074360" lon="-6.1094542">
<ele>537.514771</ele>
<time>2016-03-05T10:29:54.038Z</time>
</trkpt>
<trkpt lat="39.2073240" lon="-6.1093812">
<ele>535.594543</ele>
<time>2016-03-05T10:30:08.035Z</time>
</trkpt>
<trkpt lat="39.2071080" lon="-6.1093232">
<ele>533.674316</ele>
<time>2016-03-05T10:30:29.981Z</time>
</trkpt>
<trkpt lat="39.2069230" lon="-6.1093482">
<ele>533.186646</ele>
<time>2016-03-05T10:30:48.038Z</time>
</trkpt>
<trkpt lat="39.2067210" lon="-6.1093332">
<ele>529.346130</ele>
<time>2016-03-05T10:31:16.982Z</time>
</trkpt>
<trkpt lat="39.2064960" lon="-6.1093872">
<ele>528.370789</ele>
<time>2016-03-05T10:31:35.040Z</time>
</trkpt>
<trkpt lat="39.2063570" lon="-6.1094262">
<ele>527.913574</ele>
<time>2016-03-05T10:31:49.037Z</time>
</trkpt>
<trkpt lat="39.2061070" lon="-6.1094452">
<ele>524.530334</ele>
<time>2016-03-05T10:32:14.957Z</time>
</trkpt>
<trkpt lat="39.2059510" lon="-6.1094772">
<ele>520.202148</ele>
<time>2016-03-05T10:32:31.978Z</time>
</trkpt>
<trkpt lat="39.2058340" lon="-6.1095362">
<ele>518.769592</ele>
<time>2016-03-05T10:32:43.987Z</time>
</trkpt>
<trkpt lat="39.2056610" lon="-6.1095892">
<ele>518.769592</ele>
<time>2016-03-05T10:32:57.984Z</time>
</trkpt>
<trkpt lat="39.2054410" lon="-6.1096012">
<ele>515.386353</ele>
<time>2016-03-05T10:33:25.978Z</time>
</trkpt>
<trkpt lat="39.2052590" lon="-6.1095862">
<ele>513.008850</ele>
<time>2016-03-05T10:33:46.973Z</time>
</trkpt>
<trkpt lat="39.2051410" lon="-6.1096242">
<ele>512.521179</ele>
<time>2016-03-05T10:33:58.032Z</time>
</trkpt>
<trkpt lat="39.2049930" lon="-6.1096372">
<ele>510.600952</ele>
<time>2016-03-05T10:34:52.032Z</time>
</trkpt>
<trkpt lat="39.2048440" lon="-6.1096132">
<ele>508.680725</ele>
<time>2016-03-05T10:35:04.992Z</time>
</trkpt>
<trkpt lat="39.2047060" lon="-6.1096172">
<ele>507.217682</ele>
<time>2016-03-05T10:35:15.965Z</time>
</trkpt>
<trkpt lat="39.2045340" lon="-6.1096102">
<ele>505.785126</ele>
<time>2016-03-05T10:35:32.035Z</time>
</trkpt>
<trkpt lat="39.2042790" lon="-6.1095972">
<ele>505.297455</ele>
<time>2016-03-05T10:35:48.019Z</time>
</trkpt>
<trkpt lat="39.2041199" lon="-6.1096282">
<ele>504.840240</ele>
<time>2016-03-05T10:36:02.016Z</time>
</trkpt>
<trkpt lat="39.2039029" lon="-6.1096482">
<ele>504.840240</ele>
<time>2016-03-05T10:36:21.974Z</time>
</trkpt>
<trkpt lat="39.2037989" lon="-6.1096582">
<ele>504.840240</ele>
<time>2016-03-05T10:36:28.022Z</time>
</trkpt>
<trkpt lat="39.2036289" lon="-6.1096562">
<ele>504.352539</ele>
<time>2016-03-05T10:36:42.019Z</time>
</trkpt>
<trkpt lat="39.2034889" lon="-6.1096652">
<ele>503.377197</ele>
<time>2016-03-05T10:36:52.992Z</time>
</trkpt>
<trkpt lat="39.2033399" lon="-6.1096742">
<ele>501.944641</ele>
<time>2016-03-05T10:37:06.038Z</time>
</trkpt>
<trkpt lat="39.2031779" lon="-6.1096962">
<ele>500.969269</ele>
<time>2016-03-05T10:37:20.986Z</time>
</trkpt>
<trkpt lat="39.2030539" lon="-6.1097062">
<ele>500.512085</ele>
<time>2016-03-05T10:37:31.008Z</time>
</trkpt>
<trkpt lat="39.2027749" lon="-6.1097232">
<ele>500.024414</ele>
<time>2016-03-05T10:37:46.992Z</time>
</trkpt>
<trkpt lat="39.2025699" lon="-6.1097852">
<ele>499.536713</ele>
<time>2016-03-05T10:38:00.989Z</time>
</trkpt>
<trkpt lat="39.2024189" lon="-6.1098552">
<ele>498.591858</ele>
<time>2016-03-05T10:38:16.973Z</time>
</trkpt>
<trkpt lat="39.2022439" lon="-6.1099042">
<ele>498.104156</ele>
<time>2016-03-05T10:38:33.994Z</time>
</trkpt>
<trkpt lat="39.2020099" lon="-6.1097991">
<ele>497.128815</ele>
<time>2016-03-05T10:39:08.986Z</time>
</trkpt>
<trkpt lat="39.2017739" lon="-6.1096951">
<ele>496.183929</ele>
<time>2016-03-05T10:39:34.992Z</time>
</trkpt>
<trkpt lat="39.2016649" lon="-6.1096121">
<ele>496.183929</ele>
<time>2016-03-05T10:39:45.965Z</time>
</trkpt>
<trkpt lat="39.2014659" lon="-6.1095071">
<ele>495.208557</ele>
<time>2016-03-05T10:40:32.966Z</time>
</trkpt>
<trkpt lat="39.2013149" lon="-6.1094121">
<ele>495.208557</ele>
<time>2016-03-05T10:40:42.038Z</time>
</trkpt>
<trkpt lat="39.2011009" lon="-6.1094351">
<ele>494.263672</ele>
<time>2016-03-05T10:41:00.960Z</time>
</trkpt>
<trkpt lat="39.2008529" lon="-6.1094761">
<ele>493.776001</ele>
<time>2016-03-05T10:41:19.968Z</time>
</trkpt>
<trkpt lat="39.2005949" lon="-6.1094631">
<ele>493.288330</ele>
<time>2016-03-05T10:41:33.965Z</time>
</trkpt>
<trkpt lat="39.2004869" lon="-6.1094791">
<ele>493.288330</ele>
<time>2016-03-05T10:41:45.974Z</time>
</trkpt>
<trkpt lat="39.2002869" lon="-6.1095991">
<ele>495.208557</ele>
<time>2016-03-05T10:42:27.965Z</time>
</trkpt>
<trkpt lat="39.2001389" lon="-6.1097961">
<ele>496.671600</ele>
<time>2016-03-05T10:43:42.960Z</time>
</trkpt>
<trkpt lat="39.1999479" lon="-6.1099971">
<ele>497.616486</ele>
<time>2016-03-05T10:44:03.005Z</time>
</trkpt>
<trkpt lat="39.1998809" lon="-6.1100861">
<ele>497.616486</ele>
<time>2016-03-05T10:44:10.003Z</time>
</trkpt>
<trkpt lat="39.1997429" lon="-6.1103731">
<ele>498.591858</ele>
<time>2016-03-05T10:44:25.037Z</time>
</trkpt>
<trkpt lat="39.1996569" lon="-6.1104861">
<ele>497.616486</ele>
<time>2016-03-05T10:44:37.997Z</time>
</trkpt>
<trkpt lat="39.1994259" lon="-6.1105511">
<ele>497.616486</ele>
<time>2016-03-05T10:44:50.006Z</time>
</trkpt>
<trkpt lat="39.1991509" lon="-6.1107291">
<ele>496.671600</ele>
<time>2016-03-05T10:45:14.026Z</time>
</trkpt>
<trkpt lat="39.1990089" lon="-6.1108171">
<ele>495.696259</ele>
<time>2016-03-05T10:45:42.970Z</time>
</trkpt>
<trkpt lat="39.1988749" lon="-6.1106231">
<ele>492.800659</ele>
<time>2016-03-05T10:46:46.992Z</time>
</trkpt>
<trkpt lat="39.1988109" lon="-6.1104431">
<ele>491.368073</ele>
<time>2016-03-05T10:47:33.043Z</time>
</trkpt>
<trkpt lat="39.1987499" lon="-6.1103741">
<ele>490.423187</ele>
<time>2016-03-05T10:48:27.994Z</time>
</trkpt>
<trkpt lat="39.1986169" lon="-6.1105201">
<ele>489.447845</ele>
<time>2016-03-05T10:48:57.024Z</time>
</trkpt>
<trkpt lat="39.1985369" lon="-6.1106601">
<ele>489.447845</ele>
<time>2016-03-05T10:49:25.968Z</time>
</trkpt>
<trkpt lat="39.1983668" lon="-6.1109081">
<ele>491.368073</ele>
<time>2016-03-05T10:50:07.958Z</time>
</trkpt>
<trkpt lat="39.1982458" lon="-6.1110911">
<ele>492.800659</ele>
<time>2016-03-05T10:50:24.029Z</time>
</trkpt>
<trkpt lat="39.1981248" lon="-6.1112541">
<ele>494.263672</ele>
<time>2016-03-05T10:50:52.022Z</time>
</trkpt>
<trkpt lat="39.1980508" lon="-6.1115241">
<ele>496.183929</ele>
<time>2016-03-05T10:51:16.042Z</time>
</trkpt>
<trkpt lat="39.1980328" lon="-6.1117161">
<ele>498.104156</ele>
<time>2016-03-05T10:51:27.965Z</time>
</trkpt>
<trkpt lat="39.1980668" lon="-6.1120011">
<ele>499.049042</ele>
<time>2016-03-05T10:51:41.962Z</time>
</trkpt>
<trkpt lat="39.1980368" lon="-6.1123211">
<ele>502.432343</ele>
<time>2016-03-05T10:52:07.018Z</time>
</trkpt>
<trkpt lat="39.1979888" lon="-6.1125711">
<ele>505.297455</ele>
<time>2016-03-05T10:52:28.013Z</time>
</trkpt>
<trkpt lat="39.1979408" lon="-6.1127341">
<ele>506.760468</ele>
<time>2016-03-05T10:52:38.035Z</time>
</trkpt>
<trkpt lat="39.1978658" lon="-6.1129141">
<ele>508.680725</ele>
<time>2016-03-05T10:52:52.982Z</time>
</trkpt>
<trkpt lat="39.1978258" lon="-6.1130761">
<ele>510.600952</ele>
<time>2016-03-05T10:53:06.029Z</time>
</trkpt>
<trkpt lat="39.1977578" lon="-6.1134591">
<ele>514.441467</ele>
<time>2016-03-05T10:53:32.035Z</time>
</trkpt>
<trkpt lat="39.1977028" lon="-6.1137491">
<ele>517.337036</ele>
<time>2016-03-05T10:53:53.981Z</time>
</trkpt>
<trkpt lat="39.1976048" lon="-6.1139591">
<ele>520.202148</ele>
<time>2016-03-05T10:54:26.986Z</time>
</trkpt>
<trkpt lat="39.1976038" lon="-6.1139581">
<ele>521.177551</ele>
<time>2016-03-05T10:55:05.002Z</time>
</trkpt>
<trkpt lat="39.1975958" lon="-6.1141621">
<ele>521.665222</ele>
<time>2016-03-05T10:55:34.982Z</time>
</trkpt>
<trkpt lat="39.1975438" lon="-6.1144121">
<ele>523.097717</ele>
<time>2016-03-05T10:55:52.003Z</time>
</trkpt>
<trkpt lat="39.1975068" lon="-6.1145751">
<ele>524.530334</ele>
<time>2016-03-05T10:56:02.976Z</time>
</trkpt>
<trkpt lat="39.1974998" lon="-6.1148231">
<ele>526.938232</ele>
<time>2016-03-05T10:56:19.997Z</time>
</trkpt>
<trkpt lat="39.1974738" lon="-6.1149871">
<ele>528.858459</ele>
<time>2016-03-05T10:56:32.957Z</time>
</trkpt>
<trkpt lat="39.1974098" lon="-6.1151891">
<ele>530.291077</ele>
<time>2016-03-05T10:56:46.003Z</time>
</trkpt>
<trkpt lat="39.1973028" lon="-6.1154121">
<ele>532.241760</ele>
<time>2016-03-05T10:57:05.962Z</time>
</trkpt>
<trkpt lat="39.1972078" lon="-6.1156101">
<ele>535.106873</ele>
<time>2016-03-05T10:57:34.992Z</time>
</trkpt>
<trkpt lat="39.1971108" lon="-6.1158031">
<ele>536.539429</ele>
<time>2016-03-05T10:57:55.987Z</time>
</trkpt>
<trkpt lat="39.1970428" lon="-6.1159301">
<ele>540.410400</ele>
<time>2016-03-05T10:58:30.029Z</time>
</trkpt>
<trkpt lat="39.1969938" lon="-6.1160571">
<ele>541.355286</ele>
<time>2016-03-05T10:58:53.011Z</time>
</trkpt>
<trkpt lat="39.1969018" lon="-6.1162721">
<ele>543.763184</ele>
<time>2016-03-05T10:59:14.957Z</time>
</trkpt>
<trkpt lat="39.1968058" lon="-6.1164651">
<ele>546.658813</ele>
<time>2016-03-05T10:59:36.038Z</time>
</trkpt>
<trkpt lat="39.1967438" lon="-6.1165991">
<ele>549.523926</ele>
<time>2016-03-05T10:59:50.986Z</time>
</trkpt>
<trkpt lat="39.1966758" lon="-6.1167691">
<ele>552.419556</ele>
<time>2016-03-05T11:00:18.979Z</time>
</trkpt>
<trkpt lat="39.1966258" lon="-6.1169302">
<ele>554.827454</ele>
<time>2016-03-05T11:00:55.008Z</time>
</trkpt>
<trkpt lat="39.1965697" lon="-6.1171272">
<ele>557.204895</ele>
<time>2016-03-05T11:01:10.992Z</time>
</trkpt>
<trkpt lat="39.1965047" lon="-6.1173482">
<ele>560.100464</ele>
<time>2016-03-05T11:01:30.000Z</time>
</trkpt>
<trkpt lat="39.1964257" lon="-6.1176002">
<ele>562.996094</ele>
<time>2016-03-05T11:01:49.008Z</time>
</trkpt>
<trkpt lat="39.1963607" lon="-6.1178252">
<ele>569.732117</ele>
<time>2016-03-05T11:02:08.966Z</time>
</trkpt>
<trkpt lat="39.1963277" lon="-6.1180492">
<ele>571.652405</ele>
<time>2016-03-05T11:03:02.016Z</time>
</trkpt>
<trkpt lat="39.1962837" lon="-6.1182312">
<ele>573.572632</ele>
<time>2016-03-05T11:03:16.963Z</time>
</trkpt>
<trkpt lat="39.1962507" lon="-6.1184112">
<ele>575.492859</ele>
<time>2016-03-05T11:03:30.960Z</time>
</trkpt>
<trkpt lat="39.1962457" lon="-6.1185652">
<ele>582.686157</ele>
<time>2016-03-05T11:03:45.043Z</time>
</trkpt>
<trkpt lat="39.1962057" lon="-6.1188282">
<ele>584.149170</ele>
<time>2016-03-05T11:04:13.037Z</time>
</trkpt>
<trkpt lat="39.1960877" lon="-6.1189972">
<ele>589.909912</ele>
<time>2016-03-05T11:04:31.958Z</time>
</trkpt>
<trkpt lat="39.1960857" lon="-6.1190092">
<ele>590.397583</ele>
<time>2016-03-05T11:04:34.982Z</time>
</trkpt>
<trkpt lat="39.1959927" lon="-6.1191802">
<ele>592.775024</ele>
<time>2016-03-05T11:04:55.978Z</time>
</trkpt>
<trkpt lat="39.1959077" lon="-6.1193852">
<ele>595.670654</ele>
<time>2016-03-05T11:05:16.022Z</time>
</trkpt>
<trkpt lat="39.1957987" lon="-6.1195732">
<ele>600.974121</ele>
<time>2016-03-05T11:06:17.021Z</time>
</trkpt>
<trkpt lat="39.1956077" lon="-6.1196042">
<ele>601.431335</ele>
<time>2016-03-05T11:07:16.982Z</time>
</trkpt>
<trkpt lat="39.1954627" lon="-6.1197702">
<ele>602.894409</ele>
<time>2016-03-05T11:07:39.965Z</time>
</trkpt>
<trkpt lat="39.1953737" lon="-6.1199212">
<ele>603.351624</ele>
<time>2016-03-05T11:07:51.024Z</time>
</trkpt>
<trkpt lat="39.1952267" lon="-6.1200712">
<ele>603.351624</ele>
<time>2016-03-05T11:08:05.021Z</time>
</trkpt>
<trkpt lat="39.1951487" lon="-6.1201712">
<ele>597.133667</ele>
<time>2016-03-05T11:08:29.990Z</time>
</trkpt>
<trkpt lat="39.1950017" lon="-6.1204102">
<ele>593.750427</ele>
<time>2016-03-05T11:09:15.005Z</time>
</trkpt>
<trkpt lat="39.1948487" lon="-6.1206132">
<ele>587.014343</ele>
<time>2016-03-05T11:09:44.035Z</time>
</trkpt>
<trkpt lat="39.1947097" lon="-6.1208242">
<ele>580.765930</ele>
<time>2016-03-05T11:10:10.992Z</time>
</trkpt>
<trkpt lat="39.1945707" lon="-6.1209242">
<ele>579.821045</ele>
<time>2016-03-05T11:10:26.026Z</time>
</trkpt>
<trkpt lat="39.1944047" lon="-6.1210802">
<ele>576.925476</ele>
<time>2016-03-05T11:11:04.042Z</time>
</trkpt>
<trkpt lat="39.1942817" lon="-6.1212752">
<ele>569.732117</ele>
<time>2016-03-05T11:11:30.998Z</time>
</trkpt>
<trkpt lat="39.1941677" lon="-6.1214452">
<ele>569.244446</ele>
<time>2016-03-05T11:11:46.032Z</time>
</trkpt>
<trkpt lat="39.1940197" lon="-6.1216602">
<ele>568.269104</ele>
<time>2016-03-05T11:12:02.966Z</time>
</trkpt>
<trkpt lat="39.1939017" lon="-6.1218242">
<ele>562.996094</ele>
<time>2016-03-05T11:12:44.957Z</time>
</trkpt>
<trkpt lat="39.1937807" lon="-6.1219972">
<ele>561.075867</ele>
<time>2016-03-05T11:13:08.026Z</time>
</trkpt>
<trkpt lat="39.1937066" lon="-6.1221342">
<ele>559.612793</ele>
<time>2016-03-05T11:13:38.006Z</time>
</trkpt>
<trkpt lat="39.1935626" lon="-6.1223212">
<ele>559.125122</ele>
<time>2016-03-05T11:13:55.978Z</time>
</trkpt>
<trkpt lat="39.1934596" lon="-6.1224452">
<ele>557.692566</ele>
<time>2016-03-05T11:14:09.024Z</time>
</trkpt>
<trkpt lat="39.1932746" lon="-6.1226702">
<ele>551.931885</ele>
<time>2016-03-05T11:14:33.994Z</time>
</trkpt>
<trkpt lat="39.1931786" lon="-6.1229682">
<ele>548.091370</ele>
<time>2016-03-05T11:15:01.037Z</time>
</trkpt>
<trkpt lat="39.1931506" lon="-6.1232002">
<ele>541.842957</ele>
<time>2016-03-05T11:15:24.019Z</time>
</trkpt>
<trkpt lat="39.1931856" lon="-6.1234262">
<ele>538.490173</ele>
<time>2016-03-05T11:15:50.976Z</time>
</trkpt>
<trkpt lat="39.1932376" lon="-6.1236502">
<ele>535.594543</ele>
<time>2016-03-05T11:16:21.994Z</time>
</trkpt>
<trkpt lat="39.1933566" lon="-6.1238162">
<ele>532.698975</ele>
<time>2016-03-05T11:44:38.976Z</time>
</trkpt>
<trkpt lat="39.1934346" lon="-6.1239772">
<ele>529.346130</ele>
<time>2016-03-05T11:45:01.008Z</time>
</trkpt>
<trkpt lat="39.1934366" lon="-6.1241932">
<ele>527.913574</ele>
<time>2016-03-05T11:45:16.992Z</time>
</trkpt>
<trkpt lat="39.1934936" lon="-6.1243192">
<ele>525.993347</ele>
<time>2016-03-05T11:45:41.011Z</time>
</trkpt>
<trkpt lat="39.1935116" lon="-6.1245232">
<ele>524.530334</ele>
<time>2016-03-05T11:48:44.006Z</time>
</trkpt>
<trkpt lat="39.1935036" lon="-6.1246852">
<ele>523.097717</ele>
<time>2016-03-05T11:48:58.003Z</time>
</trkpt>
<trkpt lat="39.1935226" lon="-6.1248102">
<ele>521.665222</ele>
<time>2016-03-05T11:49:08.976Z</time>
</trkpt>
<trkpt lat="39.1935716" lon="-6.1251462">
<ele>520.202148</ele>
<time>2016-03-05T11:49:39.043Z</time>
</trkpt>
<trkpt lat="39.1937106" lon="-6.1251492">
<ele>519.257263</ele>
<time>2016-03-05T11:50:02.026Z</time>
</trkpt>
<trkpt lat="39.1936656" lon="-6.1253682">
<ele>517.337036</ele>
<time>2016-03-05T11:50:21.034Z</time>
</trkpt>
<trkpt lat="39.1937126" lon="-6.1255432">
<ele>512.521179</ele>
<time>2016-03-05T11:50:37.018Z</time>
</trkpt>
<trkpt lat="39.1937996" lon="-6.1257192">
<ele>510.600952</ele>
<time>2016-03-05T11:51:12.010Z</time>
</trkpt>
<trkpt lat="39.1938326" lon="-6.1258642">
<ele>509.625610</ele>
<time>2016-03-05T11:51:36.029Z</time>
</trkpt>
<trkpt lat="39.1938186" lon="-6.1259842">
<ele>515.386353</ele>
<time>2016-03-05T12:24:09.014Z</time>
</trkpt>
<trkpt lat="39.1937946" lon="-6.1262552">
<ele>515.386353</ele>
<time>2016-03-05T12:24:28.022Z</time>
</trkpt>
<trkpt lat="39.1937936" lon="-6.1264202">
<ele>514.929138</ele>
<time>2016-03-05T12:24:40.982Z</time>
</trkpt>
<trkpt lat="39.1938436" lon="-6.1265722">
<ele>513.953735</ele>
<time>2016-03-05T12:25:03.965Z</time>
</trkpt>
<trkpt lat="39.1938906" lon="-6.1268112">
<ele>513.008850</ele>
<time>2016-03-05T12:26:37.018Z</time>
</trkpt>
<trkpt lat="39.1939056" lon="-6.1269872">
<ele>513.008850</ele>
<time>2016-03-05T12:26:49.978Z</time>
</trkpt>
<trkpt lat="39.1939446" lon="-6.1271662">
<ele>513.008850</ele>
<time>2016-03-05T12:27:03.974Z</time>
</trkpt>
<trkpt lat="39.1939776" lon="-6.1273473">
<ele>513.008850</ele>
<time>2016-03-05T12:27:22.032Z</time>
</trkpt>
<trkpt lat="39.1939596" lon="-6.1275563">
<ele>513.008850</ele>
<time>2016-03-05T12:27:36.979Z</time>
</trkpt>
<trkpt lat="39.1939756" lon="-6.1277683">
<ele>513.008850</ele>
<time>2016-03-05T12:28:18.019Z</time>
</trkpt>
<trkpt lat="39.1938856" lon="-6.1278763">
<ele>514.441467</ele>
<time>2016-03-05T12:28:35.040Z</time>
</trkpt>
<trkpt lat="39.1938646" lon="-6.1280223">
<ele>514.929138</ele>
<time>2016-03-05T12:28:44.026Z</time>
</trkpt>
<trkpt lat="39.1938326" lon="-6.1281783">
<ele>515.874023</ele>
<time>2016-03-05T12:29:00.960Z</time>
</trkpt>
<trkpt lat="39.1938006" lon="-6.1283403">
<ele>519.257263</ele>
<time>2016-03-05T12:29:47.962Z</time>
</trkpt>
<trkpt lat="39.1937416" lon="-6.1284603">
<ele>519.257263</ele>
<time>2016-03-05T12:31:05.030Z</time>
</trkpt>
<trkpt lat="39.1936716" lon="-6.1285493">
<ele>517.824707</ele>
<time>2016-03-05T12:31:19.978Z</time>
</trkpt>
<trkpt lat="39.1937516" lon="-6.1286563">
<ele>517.337036</ele>
<time>2016-03-05T12:31:36.998Z</time>
</trkpt>
<trkpt lat="39.1938646" lon="-6.1287463">
<ele>518.769592</ele>
<time>2016-03-05T12:31:50.995Z</time>
</trkpt>
<trkpt lat="39.1940006" lon="-6.1288633">
<ele>522.610046</ele>
<time>2016-03-05T12:32:13.978Z</time>
</trkpt>
<trkpt lat="39.1941236" lon="-6.1289293">
<ele>528.370789</ele>
<time>2016-03-05T12:32:48.019Z</time>
</trkpt>
<trkpt lat="39.1942476" lon="-6.1291543">
<ele>530.291077</ele>
<time>2016-03-05T12:33:16.963Z</time>
</trkpt>
<trkpt lat="39.1942666" lon="-6.1293643">
<ele>531.754089</ele>
<time>2016-03-05T12:33:38.995Z</time>
</trkpt>
<trkpt lat="39.1942446" lon="-6.1295523">
<ele>536.082275</ele>
<time>2016-03-05T12:33:58.003Z</time>
</trkpt>
<trkpt lat="39.1942586" lon="-6.1296813">
<ele>538.002502</ele>
<time>2016-03-05T12:34:24.010Z</time>
</trkpt>
<trkpt lat="39.1943516" lon="-6.1297613">
<ele>543.763184</ele>
<time>2016-03-05T12:35:00.038Z</time>
</trkpt>
<trkpt lat="39.1943436" lon="-6.1299253">
<ele>547.603699</ele>
<time>2016-03-05T12:35:25.958Z</time>
</trkpt>
<trkpt lat="39.1943476" lon="-6.1300263">
<ele>549.036255</ele>
<time>2016-03-05T12:35:37.968Z</time>
</trkpt>
<trkpt lat="39.1943216" lon="-6.1302233">
<ele>550.011597</ele>
<time>2016-03-05T12:35:54.989Z</time>
</trkpt>
<trkpt lat="39.1942856" lon="-6.1303493">
<ele>550.499268</ele>
<time>2016-03-05T12:36:05.962Z</time>
</trkpt>
<trkpt lat="39.1942426" lon="-6.1305733">
<ele>551.444153</ele>
<time>2016-03-05T12:36:50.026Z</time>
</trkpt>
<trkpt lat="39.1942436" lon="-6.1308133">
<ele>554.339722</ele>
<time>2016-03-05T12:37:32.016Z</time>
</trkpt>
<trkpt lat="39.1942016" lon="-6.1309973">
<ele>555.315125</ele>
<time>2016-03-05T12:38:28.003Z</time>
</trkpt>
<trkpt lat="39.1941716" lon="-6.1312423">
<ele>556.747681</ele>
<time>2016-03-05T12:38:50.035Z</time>
</trkpt>
<trkpt lat="39.1942096" lon="-6.1313843">
<ele>556.747681</ele>
<time>2016-03-05T12:38:59.971Z</time>
</trkpt>
<trkpt lat="39.1941955" lon="-6.1316393">
<ele>556.747681</ele>
<time>2016-03-05T12:39:15.005Z</time>
</trkpt>
<trkpt lat="39.1941665" lon="-6.1318253">
<ele>557.204895</ele>
<time>2016-03-05T12:39:29.002Z</time>
</trkpt>
<trkpt lat="39.1941675" lon="-6.1320183">
<ele>558.667908</ele>
<time>2016-03-05T12:39:44.986Z</time>
</trkpt>
<trkpt lat="39.1941705" lon="-6.1321833">
<ele>564.916321</ele>
<time>2016-03-05T12:40:00.970Z</time>
</trkpt>
<trkpt lat="39.1941665" lon="-6.1323683">
<ele>567.324280</ele>
<time>2016-03-05T12:40:24.038Z</time>
</trkpt>
<trkpt lat="39.1942455" lon="-6.1325333">
<ele>571.652405</ele>
<time>2016-03-05T12:40:49.958Z</time>
</trkpt>
<trkpt lat="39.1942775" lon="-6.1327033">
<ele>575.492859</ele>
<time>2016-03-05T12:41:15.014Z</time>
</trkpt>
<trkpt lat="39.1942245" lon="-6.1328213">
<ele>576.437744</ele>
<time>2016-03-05T12:41:27.024Z</time>
</trkpt>
<trkpt lat="39.1942335" lon="-6.1330013">
<ele>577.413147</ele>
<time>2016-03-05T12:41:46.982Z</time>
</trkpt>
<trkpt lat="39.1942055" lon="-6.1332413">
<ele>579.333374</ele>
<time>2016-03-05T12:42:31.997Z</time>
</trkpt>
<trkpt lat="39.1941585" lon="-6.1333583">
<ele>579.821045</ele>
<time>2016-03-05T12:42:42.970Z</time>
</trkpt>
<trkpt lat="39.1940825" lon="-6.1335793">
<ele>582.228943</ele>
<time>2016-03-05T12:43:03.014Z</time>
</trkpt>
<trkpt lat="39.1940515" lon="-6.1338353">
<ele>585.094055</ele>
<time>2016-03-05T12:43:27.984Z</time>
</trkpt>
<trkpt lat="39.1940675" lon="-6.1340214">
<ele>586.069458</ele>
<time>2016-03-05T12:43:41.981Z</time>
</trkpt>
<trkpt lat="39.1940725" lon="-6.1340454">
<ele>586.069458</ele>
<time>2016-03-05T12:43:43.968Z</time>
</trkpt>
<trkpt lat="39.1940845" lon="-6.1342914">
<ele>587.502014</ele>
<time>2016-03-05T12:44:02.976Z</time>
</trkpt>
<trkpt lat="39.1940615" lon="-6.1345244">
<ele>588.446899</ele>
<time>2016-03-05T12:44:18.960Z</time>
</trkpt>
<trkpt lat="39.1940435" lon="-6.1346974">
<ele>589.909912</ele>
<time>2016-03-05T12:44:33.994Z</time>
</trkpt>
<trkpt lat="39.1939995" lon="-6.1349444">
<ele>591.342468</ele>
<time>2016-03-05T12:44:54.038Z</time>
</trkpt>
<trkpt lat="39.1939485" lon="-6.1352334">
<ele>594.695251</ele>
<time>2016-03-05T12:45:17.971Z</time>
</trkpt>
<trkpt lat="39.1938275" lon="-6.1354374">
<ele>600.486450</ele>
<time>2016-03-05T12:45:40.003Z</time>
</trkpt>
<trkpt lat="39.1936735" lon="-6.1357314">
<ele>602.406738</ele>
<time>2016-03-05T12:46:13.958Z</time>
</trkpt>
<trkpt lat="39.1936335" lon="-6.1358754">
<ele>602.894409</ele>
<time>2016-03-05T12:46:25.968Z</time>
</trkpt>
<trkpt lat="39.1935395" lon="-6.1361544">
<ele>605.302307</ele>
<time>2016-03-05T12:46:49.037Z</time>
</trkpt>
<trkpt lat="39.1935255" lon="-6.1363304">
<ele>606.734863</ele>
<time>2016-03-05T12:47:01.997Z</time>
</trkpt>
<trkpt lat="39.1936015" lon="-6.1366254">
<ele>608.167480</ele>
<time>2016-03-05T12:47:28.003Z</time>
</trkpt>
<trkpt lat="39.1936085" lon="-6.1368824">
<ele>611.550720</ele>
<time>2016-03-05T12:48:06.970Z</time>
</trkpt>
<trkpt lat="39.1936565" lon="-6.1370404">
<ele>611.063049</ele>
<time>2016-03-05T12:48:20.016Z</time>
</trkpt>
<trkpt lat="39.1936775" lon="-6.1372184">
<ele>606.734863</ele>
<time>2016-03-05T12:48:34.013Z</time>
</trkpt>
<trkpt lat="39.1936785" lon="-6.1374634">
<ele>605.302307</ele>
<time>2016-03-05T12:48:55.008Z</time>
</trkpt>
<trkpt lat="39.1936485" lon="-6.1377394">
<ele>604.326965</ele>
<time>2016-03-05T12:49:21.965Z</time>
</trkpt>
<trkpt lat="39.1936465" lon="-6.1379034">
<ele>602.894409</ele>
<time>2016-03-05T12:49:45.034Z</time>
</trkpt>
<trkpt lat="39.1937325" lon="-6.1381354">
<ele>601.919067</ele>
<time>2016-03-05T12:50:01.018Z</time>
</trkpt>
<trkpt lat="39.1937685" lon="-6.1383304">
<ele>601.919067</ele>
<time>2016-03-05T12:50:17.002Z</time>
</trkpt>
<trkpt lat="39.1939245" lon="-6.1383594">
<ele>603.351624</ele>
<time>2016-03-05T12:50:50.006Z</time>
</trkpt>
<trkpt lat="39.1940835" lon="-6.1383344">
<ele>606.734863</ele>
<time>2016-03-05T12:51:33.034Z</time>
</trkpt>
<trkpt lat="39.1941975" lon="-6.1382514">
<ele>609.599976</ele>
<time>2016-03-05T12:51:54.979Z</time>
</trkpt>
<trkpt lat="39.1943635" lon="-6.1382254">
<ele>612.983276</ele>
<time>2016-03-05T12:52:29.971Z</time>
</trkpt>
<trkpt lat="39.1944795" lon="-6.1381884">
<ele>613.928162</ele>
<time>2016-03-05T12:52:43.968Z</time>
</trkpt>
<trkpt lat="39.1945965" lon="-6.1382014">
<ele>616.823730</ele>
<time>2016-03-05T12:52:57.965Z</time>
</trkpt>
<trkpt lat="39.1947205" lon="-6.1383074">
<ele>618.256348</ele>
<time>2016-03-05T12:53:21.984Z</time>
</trkpt>
<trkpt lat="39.1948005" lon="-6.1384914">
<ele>618.256348</ele>
<time>2016-03-05T12:53:58.963Z</time>
</trkpt>
<trkpt lat="39.1948965" lon="-6.1386264">
<ele>618.256348</ele>
<time>2016-03-05T12:54:12.960Z</time>
</trkpt>
<trkpt lat="39.1949585" lon="-6.1388144">
<ele>616.823730</ele>
<time>2016-03-05T12:54:27.994Z</time>
</trkpt>
<trkpt lat="39.1950735" lon="-6.1390324">
<ele>616.823730</ele>
<time>2016-03-05T12:54:40.003Z</time>
</trkpt>
<trkpt lat="39.1951485" lon="-6.1393064">
<ele>616.823730</ele>
<time>2016-03-05T12:55:02.986Z</time>
</trkpt>
<trkpt lat="39.1951855" lon="-6.1396015">
<ele>615.391174</ele>
<time>2016-03-05T12:55:30.979Z</time>
</trkpt>
<trkpt lat="39.1952385" lon="-6.1398425">
<ele>614.903503</ele>
<time>2016-03-05T12:55:44.976Z</time>
</trkpt>
<trkpt lat="39.1953175" lon="-6.1401095">
<ele>614.903503</ele>
<time>2016-03-05T12:56:00.010Z</time>
</trkpt>
<trkpt lat="39.1953475" lon="-6.1404045">
<ele>614.903503</ele>
<time>2016-03-05T12:56:19.968Z</time>
</trkpt>
<trkpt lat="39.1953185" lon="-6.1405945">
<ele>613.470947</ele>
<time>2016-03-05T12:56:35.002Z</time>
</trkpt>
<trkpt lat="39.1952605" lon="-6.1407615">
<ele>611.550720</ele>
<time>2016-03-05T12:56:52.022Z</time>
</trkpt>
<trkpt lat="39.1952895" lon="-6.1409915">
<ele>611.063049</ele>
<time>2016-03-05T12:57:11.981Z</time>
</trkpt>
<trkpt lat="39.1953815" lon="-6.1412595">
<ele>609.142822</ele>
<time>2016-03-05T12:57:32.976Z</time>
</trkpt>
<trkpt lat="39.1955105" lon="-6.1415005">
<ele>610.087646</ele>
<time>2016-03-05T12:58:21.014Z</time>
</trkpt>
<trkpt lat="39.1956795" lon="-6.1416895">
<ele>614.415833</ele>
<time>2016-03-05T12:58:49.958Z</time>
</trkpt>
<trkpt lat="39.1956915" lon="-6.1419425">
<ele>613.470947</ele>
<time>2016-03-05T12:59:11.040Z</time>
</trkpt>
<trkpt lat="39.1956144" lon="-6.1420945">
<ele>612.495605</ele>
<time>2016-03-05T12:59:25.037Z</time>
</trkpt>
<trkpt lat="39.1954814" lon="-6.1422995">
<ele>611.550720</ele>
<time>2016-03-05T12:59:39.984Z</time>
</trkpt>
<trkpt lat="39.1954494" lon="-6.1425505">
<ele>611.550720</ele>
<time>2016-03-05T12:59:57.005Z</time>
</trkpt>
<trkpt lat="39.1954314" lon="-6.1428405">
<ele>614.903503</ele>
<time>2016-03-05T13:00:21.974Z</time>
</trkpt>
<trkpt lat="39.1955334" lon="-6.1428535">
<ele>616.823730</ele>
<time>2016-03-05T13:00:37.008Z</time>
</trkpt>
<trkpt lat="39.1955144" lon="-6.1429825">
<ele>620.176575</ele>
<time>2016-03-05T13:00:56.016Z</time>
</trkpt>
<trkpt lat="39.1954114" lon="-6.1430905">
<ele>622.096802</ele>
<time>2016-03-05T13:01:12.000Z</time>
</trkpt>
<trkpt lat="39.1953024" lon="-6.1433555">
<ele>624.504700</ele>
<time>2016-03-05T13:01:50.966Z</time>
</trkpt>
<trkpt lat="39.1952414" lon="-6.1435155">
<ele>625.967773</ele>
<time>2016-03-05T13:02:07.037Z</time>
</trkpt>
<trkpt lat="39.1951674" lon="-6.1436805">
<ele>630.265442</ele>
<time>2016-03-05T13:02:23.021Z</time>
</trkpt>
<trkpt lat="39.1950984" lon="-6.1438565">
<ele>631.240784</ele>
<time>2016-03-05T13:02:44.966Z</time>
</trkpt>
<trkpt lat="39.1950574" lon="-6.1440735">
<ele>632.185730</ele>
<time>2016-03-05T13:03:05.011Z</time>
</trkpt>
<trkpt lat="39.1951154" lon="-6.1442915">
<ele>634.136414</ele>
<time>2016-03-05T13:03:24.970Z</time>
</trkpt>
<trkpt lat="39.1951884" lon="-6.1444445">
<ele>639.897095</ele>
<time>2016-03-05T13:04:00.998Z</time>
</trkpt>
<trkpt lat="39.1951934" lon="-6.1444515">
<ele>639.897095</ele>
<time>2016-03-05T13:04:02.035Z</time>
</trkpt>
<trkpt lat="39.1952374" lon="-6.1446505">
<ele>645.657837</ele>
<time>2016-03-05T13:04:41.002Z</time>
</trkpt>
<trkpt lat="39.1952284" lon="-6.1449055">
<ele>649.041077</ele>
<time>2016-03-05T13:05:05.971Z</time>
</trkpt>
<trkpt lat="39.1951184" lon="-6.1450835">
<ele>649.986023</ele>
<time>2016-03-05T13:05:26.966Z</time>
</trkpt>
<trkpt lat="39.1950364" lon="-6.1452325">
<ele>650.473694</ele>
<time>2016-03-05T13:05:42.000Z</time>
</trkpt>
<trkpt lat="39.1949404" lon="-6.1454015">
<ele>651.418518</ele>
<time>2016-03-05T13:05:59.021Z</time>
</trkpt>
<trkpt lat="39.1948394" lon="-6.1455085">
<ele>653.826538</ele>
<time>2016-03-05T13:06:13.018Z</time>
</trkpt>
<trkpt lat="39.1947284" lon="-6.1456555">
<ele>655.289490</ele>
<time>2016-03-05T13:06:29.002Z</time>
</trkpt>
<trkpt lat="39.1947104" lon="-6.1458365">
<ele>657.209717</ele>
<time>2016-03-05T13:06:51.034Z</time>
</trkpt>
<trkpt lat="39.1947904" lon="-6.1459725">
<ele>657.209717</ele>
<time>2016-03-05T13:07:19.978Z</time>
</trkpt>
<trkpt lat="39.1948714" lon="-6.1462645">
<ele>660.074890</ele>
<time>2016-03-05T13:07:45.034Z</time>
</trkpt>
<trkpt lat="39.1950234" lon="-6.1462225">
<ele>664.890686</ele>
<time>2016-03-05T13:08:06.979Z</time>
</trkpt>
<trkpt lat="39.1951864" lon="-6.1461215">
<ele>670.194275</ele>
<time>2016-03-05T13:08:50.006Z</time>
</trkpt>
<trkpt lat="39.1953314" lon="-6.1459875">
<ele>675.467285</ele>
<time>2016-03-05T13:09:30.010Z</time>
</trkpt>
<trkpt lat="39.1954394" lon="-6.1460136">
<ele>677.387512</ele>
<time>2016-03-05T13:09:47.981Z</time>
</trkpt>
<trkpt lat="39.1955554" lon="-6.1459436">
<ele>678.362915</ele>
<time>2016-03-05T13:10:03.014Z</time>
</trkpt>
<trkpt lat="39.1957644" lon="-6.1458526">
<ele>683.635864</ele>
<time>2016-03-05T13:10:29.971Z</time>
</trkpt>
<trkpt lat="39.1958584" lon="-6.1458666">
<ele>684.611328</ele>
<time>2016-03-05T13:10:41.981Z</time>
</trkpt>
<trkpt lat="39.1959864" lon="-6.1460436">
<ele>684.123596</ele>
<time>2016-03-05T13:11:09.024Z</time>
</trkpt>
<trkpt lat="39.1961284" lon="-6.1461826">
<ele>681.228027</ele>
<time>2016-03-05T13:11:30.019Z</time>
</trkpt>
<trkpt lat="39.1962894" lon="-6.1462726">
<ele>680.740295</ele>
<time>2016-03-05T13:11:46.003Z</time>
</trkpt>
<trkpt lat="39.1964994" lon="-6.1463146">
<ele>682.203369</ele>
<time>2016-03-05T13:12:10.973Z</time>
</trkpt>
<trkpt lat="39.1966774" lon="-6.1462096">
<ele>684.611328</ele>
<time>2016-03-05T13:12:41.990Z</time>
</trkpt>
<trkpt lat="39.1967724" lon="-6.1461746">
<ele>686.531494</ele>
<time>2016-03-05T13:12:55.037Z</time>
</trkpt>
<trkpt lat="39.1969504" lon="-6.1461546">
<ele>687.964111</ele>
<time>2016-03-05T13:13:58.973Z</time>
</trkpt>
<trkpt lat="39.1971214" lon="-6.1460786">
<ele>688.908936</ele>
<time>2016-03-05T13:14:15.994Z</time>
</trkpt>
<trkpt lat="39.1972474" lon="-6.1461026">
<ele>693.237061</ele>
<time>2016-03-05T13:14:29.040Z</time>
</trkpt>
<trkpt lat="39.1974194" lon="-6.1460696">
<ele>696.620422</ele>
<time>2016-03-05T13:14:48.998Z</time>
</trkpt>
<trkpt lat="39.1975104" lon="-6.1459906">
<ele>700.460938</ele>
<time>2016-03-05T13:15:08.006Z</time>
</trkpt>
<trkpt lat="39.1976564" lon="-6.1459726">
<ele>702.868774</ele>
<time>2016-03-05T13:15:39.974Z</time>
</trkpt>
<trkpt lat="39.1977454" lon="-6.1459616">
<ele>703.813721</ele>
<time>2016-03-05T13:15:51.984Z</time>
</trkpt>
<trkpt lat="39.1979024" lon="-6.1459086">
<ele>704.789063</ele>
<time>2016-03-05T13:16:12.029Z</time>
</trkpt>
<trkpt lat="39.1980174" lon="-6.1459146">
<ele>704.789063</ele>
<time>2016-03-05T13:16:24.989Z</time>
</trkpt>
<trkpt lat="39.1982144" lon="-6.1458476">
<ele>703.813721</ele>
<time>2016-03-05T13:16:49.008Z</time>
</trkpt>
<trkpt lat="39.1982174" lon="-6.1458446">
<ele>703.813721</ele>
<time>2016-03-05T13:17:06.029Z</time>
</trkpt>
<trkpt lat="39.1983865" lon="-6.1457026">
<ele>703.813721</ele>
<time>2016-03-05T13:17:32.035Z</time>
</trkpt>
<trkpt lat="39.1985095" lon="-6.1456656">
<ele>703.813721</ele>
<time>2016-03-05T13:17:43.958Z</time>
</trkpt>
<trkpt lat="39.1987145" lon="-6.1455836">
<ele>703.813721</ele>
<time>2016-03-05T13:18:05.040Z</time>
</trkpt>
<trkpt lat="39.1988175" lon="-6.1455496">
<ele>703.813721</ele>
<time>2016-03-05T13:18:12.989Z</time>
</trkpt>
<trkpt lat="39.1989535" lon="-6.1455276">
<ele>704.301331</ele>
<time>2016-03-05T13:18:33.984Z</time>
</trkpt>
<trkpt lat="39.1990775" lon="-6.1455356">
<ele>707.684631</ele>
<time>2016-03-05T13:19:20.986Z</time>
</trkpt>
<trkpt lat="39.1992455" lon="-6.1455086">
<ele>710.549744</ele>
<time>2016-03-05T13:19:43.018Z</time>
</trkpt>
<trkpt lat="39.1993955" lon="-6.1454466">
<ele>712.957703</ele>
<time>2016-03-05T13:20:04.013Z</time>
</trkpt>
<trkpt lat="39.1995385" lon="-6.1454036">
<ele>711.037476</ele>
<time>2016-03-05T13:20:37.018Z</time>
</trkpt>
<trkpt lat="39.1996925" lon="-6.1453126">
<ele>708.629517</ele>
<time>2016-03-05T13:21:00.000Z</time>
</trkpt>
<trkpt lat="39.1998085" lon="-6.1452646">
<ele>707.684631</ele>
<time>2016-03-05T13:21:13.997Z</time>
</trkpt>
<trkpt lat="39.1999905" lon="-6.1452766">
<ele>704.789063</ele>
<time>2016-03-05T13:21:33.005Z</time>
</trkpt>
<trkpt lat="39.2001635" lon="-6.1452816">
<ele>701.405762</ele>
<time>2016-03-05T13:21:50.026Z</time>
</trkpt>
<trkpt lat="39.2003215" lon="-6.1453056">
<ele>701.405762</ele>
<time>2016-03-05T13:22:02.035Z</time>
</trkpt>
<trkpt lat="39.2005835" lon="-6.1452806">
<ele>700.948547</ele>
<time>2016-03-05T13:22:27.005Z</time>
</trkpt>
<trkpt lat="39.2007225" lon="-6.1452886">
<ele>699.028320</ele>
<time>2016-03-05T13:22:49.987Z</time>
</trkpt>
<trkpt lat="39.2008665" lon="-6.1451736">
<ele>699.028320</ele>
<time>2016-03-05T13:23:07.958Z</time>
</trkpt>
<trkpt lat="39.2010775" lon="-6.1451496">
<ele>697.077576</ele>
<time>2016-03-05T13:23:28.003Z</time>
</trkpt>
<trkpt lat="39.2012325" lon="-6.1451136">
<ele>695.157349</ele>
<time>2016-03-05T13:23:42.000Z</time>
</trkpt>
<trkpt lat="39.2014345" lon="-6.1449676">
<ele>689.884277</ele>
<time>2016-03-05T13:24:13.018Z</time>
</trkpt>
<trkpt lat="39.2015805" lon="-6.1448577">
<ele>687.476379</ele>
<time>2016-03-05T13:24:29.002Z</time>
</trkpt>
<trkpt lat="39.2017235" lon="-6.1447007">
<ele>685.068481</ele>
<time>2016-03-05T13:24:48.960Z</time>
</trkpt>
<trkpt lat="39.2018005" lon="-6.1445497">
<ele>683.635864</ele>
<time>2016-03-05T13:25:03.994Z</time>
</trkpt>
<trkpt lat="39.2018395" lon="-6.1443606">
<ele>681.228027</ele>
<time>2016-03-05T13:26:04.042Z</time>
</trkpt>
<trkpt lat="39.2018745" lon="-6.1441826">
<ele>682.203369</ele>
<time>2016-03-05T13:26:25.037Z</time>
</trkpt>
<trkpt lat="39.2019515" lon="-6.1439946">
<ele>683.148254</ele>
<time>2016-03-05T13:27:33.984Z</time>
</trkpt>
<trkpt lat="39.2021085" lon="-6.1436816">
<ele>681.715698</ele>
<time>2016-03-05T13:28:03.014Z</time>
</trkpt>
<trkpt lat="39.2021725" lon="-6.1434036">
<ele>681.715698</ele>
<time>2016-03-05T13:28:24.010Z</time>
</trkpt>
<trkpt lat="39.2022895" lon="-6.1430886">
<ele>681.715698</ele>
<time>2016-03-05T13:28:50.966Z</time>
</trkpt>
<trkpt lat="39.2024035" lon="-6.1429076">
<ele>681.715698</ele>
<time>2016-03-05T13:29:02.026Z</time>
</trkpt>
<trkpt lat="39.2025825" lon="-6.1427656">
<ele>679.307739</ele>
<time>2016-03-05T13:29:25.958Z</time>
</trkpt>
<trkpt lat="39.2027026" lon="-6.1426306">
<ele>678.820129</ele>
<time>2016-03-05T13:29:49.027Z</time>
</trkpt>
<trkpt lat="39.2028046" lon="-6.1424476">
<ele>676.899841</ele>
<time>2016-03-05T13:30:01.987Z</time>
</trkpt>
<trkpt lat="39.2029446" lon="-6.1425006">
<ele>675.467285</ele>
<time>2016-03-05T13:30:15.034Z</time>
</trkpt>
<trkpt lat="39.2029686" lon="-6.1427686">
<ele>674.034668</ele>
<time>2016-03-05T13:30:38.966Z</time>
</trkpt>
<trkpt lat="39.2029716" lon="-6.1427746">
<ele>674.034668</ele>
<time>2016-03-05T13:30:43.027Z</time>
</trkpt>
<trkpt lat="39.2030376" lon="-6.1429007">
<ele>675.467285</ele>
<time>2016-03-05T13:30:57.024Z</time>
</trkpt>
<trkpt lat="39.2031006" lon="-6.1430397">
<ele>678.820129</ele>
<time>2016-03-05T13:31:21.043Z</time>
</trkpt>
<trkpt lat="39.2031115" lon="-6.1432737">
<ele>679.307739</ele>
<time>2016-03-05T13:31:35.990Z</time>
</trkpt>
<trkpt lat="39.2030615" lon="-6.1434887">
<ele>679.307739</ele>
<time>2016-03-05T13:31:49.037Z</time>
</trkpt>
<trkpt lat="39.2030985" lon="-6.1437817">
<ele>676.899841</ele>
<time>2016-03-05T13:32:12.970Z</time>
</trkpt>
<trkpt lat="39.2031415" lon="-6.1440107">
<ele>675.954956</ele>
<time>2016-03-05T13:32:24.979Z</time>
</trkpt>
<trkpt lat="39.2031575" lon="-6.1443057">
<ele>674.979614</ele>
<time>2016-03-05T13:32:43.037Z</time>
</trkpt>
<trkpt lat="39.2032705" lon="-6.1445097">
<ele>675.954956</ele>
<time>2016-03-05T13:35:50.006Z</time>
</trkpt>
<trkpt lat="39.2034605" lon="-6.1446777">
<ele>678.362915</ele>
<time>2016-03-05T13:36:14.976Z</time>
</trkpt>
<trkpt lat="39.2035795" lon="-6.1447377">
<ele>680.283081</ele>
<time>2016-03-05T13:36:30.010Z</time>
</trkpt>
<trkpt lat="39.2037605" lon="-6.1447947">
<ele>682.203369</ele>
<time>2016-03-05T13:36:52.042Z</time>
</trkpt>
<trkpt lat="39.2039625" lon="-6.1447727">
<ele>684.611328</ele>
<time>2016-03-05T13:37:12.000Z</time>
</trkpt>
<trkpt lat="39.2041805" lon="-6.1447817">
<ele>686.531494</ele>
<time>2016-03-05T13:37:31.958Z</time>
</trkpt>
<trkpt lat="39.2043826" lon="-6.1448437">
<ele>689.884277</ele>
<time>2016-03-05T13:37:53.990Z</time>
</trkpt>
<trkpt lat="39.2045486" lon="-6.1448757">
<ele>692.292236</ele>
<time>2016-03-05T13:38:09.024Z</time>
</trkpt>
<trkpt lat="39.2047476" lon="-6.1449397">
<ele>695.645081</ele>
<time>2016-03-05T13:38:28.982Z</time>
</trkpt>
<trkpt lat="39.2049306" lon="-6.1449957">
<ele>696.620422</ele>
<time>2016-03-05T13:38:51.965Z</time>
</trkpt>
<trkpt lat="39.2050846" lon="-6.1450007">
<ele>698.540649</ele>
<time>2016-03-05T13:39:03.024Z</time>
</trkpt>
<trkpt lat="39.2052276" lon="-6.1450077">
<ele>700.948547</ele>
<time>2016-03-05T13:39:26.957Z</time>
</trkpt>
<trkpt lat="39.2052876" lon="-6.1450787">
<ele>700.948547</ele>
<time>2016-03-05T13:40:06.010Z</time>
</trkpt>
<trkpt lat="39.2052926" lon="-6.1452247">
<ele>702.868774</ele>
<time>2016-03-05T13:40:18.019Z</time>
</trkpt>
<trkpt lat="39.2052476" lon="-6.1454917">
<ele>706.221619</ele>
<time>2016-03-05T13:40:39.014Z</time>
</trkpt>
<trkpt lat="39.2052446" lon="-6.1456437">
<ele>708.141846</ele>
<time>2016-03-05T13:40:54.998Z</time>
</trkpt>
<trkpt lat="39.2051735" lon="-6.1459117">
<ele>710.062134</ele>
<time>2016-03-05T13:41:15.043Z</time>
</trkpt>
<trkpt lat="39.2051235" lon="-6.1460807">
<ele>711.525085</ele>
<time>2016-03-05T13:41:31.027Z</time>
</trkpt>
<trkpt lat="39.2050675" lon="-6.1462577">
<ele>713.933044</ele>
<time>2016-03-05T13:41:45.024Z</time>
</trkpt>
<trkpt lat="39.2049815" lon="-6.1464257">
<ele>716.798157</ele>
<time>2016-03-05T13:42:01.008Z</time>
</trkpt>
<trkpt lat="39.2049535" lon="-6.1466887">
<ele>720.638672</ele>
<time>2016-03-05T13:42:25.027Z</time>
</trkpt>
<trkpt lat="39.2050365" lon="-6.1468527">
<ele>723.046570</ele>
<time>2016-03-05T13:42:39.974Z</time>
</trkpt>
<trkpt lat="39.2050755" lon="-6.1470537">
<ele>724.021912</ele>
<time>2016-03-05T13:42:56.995Z</time>
</trkpt>
<trkpt lat="39.2052345" lon="-6.1473298">
<ele>729.294922</ele>
<time>2016-03-05T13:43:24.038Z</time>
</trkpt>
<trkpt lat="39.2053325" lon="-6.1475408">
<ele>730.727478</ele>
<time>2016-03-05T13:43:42.960Z</time>
</trkpt>
<trkpt lat="39.2054355" lon="-6.1477158">
<ele>734.567993</ele>
<time>2016-03-05T13:43:59.981Z</time>
</trkpt>
<trkpt lat="39.2055345" lon="-6.1478768">
<ele>735.055725</ele>
<time>2016-03-05T13:44:13.978Z</time>
</trkpt>
<trkpt lat="39.2056195" lon="-6.1481048">
<ele>736.518677</ele>
<time>2016-03-05T13:44:32.986Z</time>
</trkpt>
<trkpt lat="39.2056785" lon="-6.1482498">
<ele>736.975891</ele>
<time>2016-03-05T13:44:43.008Z</time>
</trkpt>
<trkpt lat="39.2057995" lon="-6.1484328">
<ele>739.871460</ele>
<time>2016-03-05T13:45:14.976Z</time>
</trkpt>
<trkpt lat="39.2058175" lon="-6.1484288">
<ele>739.871460</ele>
<time>2016-03-05T13:49:44.976Z</time>
</trkpt>
<trkpt lat="39.2060565" lon="-6.1485158">
<ele>743.254822</ele>
<time>2016-03-05T13:50:08.995Z</time>
</trkpt>
<trkpt lat="39.2062105" lon="-6.1485568">
<ele>744.199707</ele>
<time>2016-03-05T13:50:22.992Z</time>
</trkpt>
<trkpt lat="39.2063865" lon="-6.1485808">
<ele>745.175049</ele>
<time>2016-03-05T13:50:36.989Z</time>
</trkpt>
<trkpt lat="39.2065305" lon="-6.1485678">
<ele>746.119873</ele>
<time>2016-03-05T13:50:50.035Z</time>
</trkpt>
<trkpt lat="39.2066895" lon="-6.1485258">
<ele>748.527832</ele>
<time>2016-03-05T13:51:13.968Z</time>
</trkpt>
<trkpt lat="39.2068725" lon="-6.1484728">
<ele>749.960388</ele>
<time>2016-03-05T13:51:25.978Z</time>
</trkpt>
<trkpt lat="39.2070455" lon="-6.1484498">
<ele>750.448120</ele>
<time>2016-03-05T13:51:34.013Z</time>
</trkpt>
<trkpt lat="39.2072446" lon="-6.1483748">
<ele>752.856018</ele>
<time>2016-03-05T13:51:53.971Z</time>
</trkpt>
<trkpt lat="39.2074366" lon="-6.1482508">
<ele>753.800903</ele>
<time>2016-03-05T13:52:07.968Z</time>
</trkpt>
<trkpt lat="39.2075426" lon="-6.1481768">
<ele>755.263916</ele>
<time>2016-03-05T13:52:21.014Z</time>
</trkpt>
<trkpt lat="39.2076696" lon="-6.1480878">
<ele>756.696533</ele>
<time>2016-03-05T13:52:42.010Z</time>
</trkpt>
<trkpt lat="39.2078446" lon="-6.1480018">
<ele>757.671875</ele>
<time>2016-03-05T13:53:11.990Z</time>
</trkpt>
<trkpt lat="39.2080256" lon="-6.1479588">
<ele>757.671875</ele>
<time>2016-03-05T13:54:59.990Z</time>
</trkpt>
<trkpt lat="39.2081876" lon="-6.1479488">
<ele>756.208801</ele>
<time>2016-03-05T13:55:27.984Z</time>
</trkpt>
<trkpt lat="39.2083296" lon="-6.1479838">
<ele>756.208801</ele>
<time>2016-03-05T13:55:36.970Z</time>
</trkpt>
<trkpt lat="39.2086006" lon="-6.1480318">
<ele>755.721069</ele>
<time>2016-03-05T13:55:59.002Z</time>
</trkpt>
<trkpt lat="39.2088136" lon="-6.1480588">
<ele>755.263916</ele>
<time>2016-03-05T13:56:16.973Z</time>
</trkpt>
<trkpt lat="39.2091006" lon="-6.1481338">
<ele>754.776245</ele>
<time>2016-03-05T13:56:35.981Z</time>
</trkpt>
<trkpt lat="39.2092346" lon="-6.1481618">
<ele>754.776245</ele>
<time>2016-03-05T13:56:47.040Z</time>
</trkpt>
<trkpt lat="39.2094056" lon="-6.1481748">
<ele>754.776245</ele>
<time>2016-03-05T13:56:58.963Z</time>
</trkpt>
<trkpt lat="39.2095616" lon="-6.1481358">
<ele>754.288574</ele>
<time>2016-03-05T13:57:10.022Z</time>
</trkpt>
<trkpt lat="39.2097516" lon="-6.1481399">
<ele>754.288574</ele>
<time>2016-03-05T13:57:20.995Z</time>
</trkpt>
<trkpt lat="39.2099896" lon="-6.1481769">
<ele>754.288574</ele>
<time>2016-03-05T13:57:41.040Z</time>
</trkpt>
<trkpt lat="39.2103086" lon="-6.1481729">
<ele>754.776245</ele>
<time>2016-03-05T13:58:04.973Z</time>
</trkpt>
<trkpt lat="39.2104116" lon="-6.1480489">
<ele>755.721069</ele>
<time>2016-03-05T13:58:18.970Z</time>
</trkpt>
<trkpt lat="39.2106036" lon="-6.1478659">
<ele>756.696533</ele>
<time>2016-03-05T13:58:32.966Z</time>
</trkpt>
<trkpt lat="39.2107846" lon="-6.1476689">
<ele>758.616699</ele>
<time>2016-03-05T13:58:48.000Z</time>
</trkpt>
<trkpt lat="39.2108716" lon="-6.1475609">
<ele>757.184143</ele>
<time>2016-03-05T13:59:10.982Z</time>
</trkpt>
<trkpt lat="39.2109346" lon="-6.1474609">
<ele>756.696533</ele>
<time>2016-03-05T13:59:22.992Z</time>
</trkpt>
<trkpt lat="39.2110066" lon="-6.1472939">
<ele>756.208801</ele>
<time>2016-03-05T13:59:38.026Z</time>
</trkpt>
<trkpt lat="39.2111076" lon="-6.1471789">
<ele>756.696533</ele>
<time>2016-03-05T14:22:20.986Z</time>
</trkpt>
<trkpt lat="39.2111986" lon="-6.1471639">
<ele>756.696533</ele>
<time>2016-03-05T14:22:29.021Z</time>
</trkpt>
<trkpt lat="39.2114076" lon="-6.1471389">
<ele>756.696533</ele>
<time>2016-03-05T14:22:43.968Z</time>
</trkpt>
<trkpt lat="39.2116926" lon="-6.1471659">
<ele>756.696533</ele>
<time>2016-03-05T14:23:07.987Z</time>
</trkpt>
<trkpt lat="39.2118766" lon="-6.1472119">
<ele>756.696533</ele>
<time>2016-03-05T14:24:22.982Z</time>
</trkpt>
<trkpt lat="39.2120406" lon="-6.1472139">
<ele>756.696533</ele>
<time>2016-03-05T14:24:34.992Z</time>
</trkpt>
<trkpt lat="39.2122646" lon="-6.1471849">
<ele>757.671875</ele>
<time>2016-03-05T14:24:50.976Z</time>
</trkpt>
<trkpt lat="39.2123416" lon="-6.1471229">
<ele>757.671875</ele>
<time>2016-03-05T14:25:00.998Z</time>
</trkpt>
<trkpt lat="39.2125316" lon="-6.1470069">
<ele>757.671875</ele>
<time>2016-03-05T14:25:11.971Z</time>
</trkpt>
<trkpt lat="39.2126377" lon="-6.1468949">
<ele>757.671875</ele>
<time>2016-03-05T14:25:23.030Z</time>
</trkpt>
<trkpt lat="39.2128487" lon="-6.1468019">
<ele>757.671875</ele>
<time>2016-03-05T14:25:39.965Z</time>
</trkpt>
<trkpt lat="39.2130357" lon="-6.1467329">
<ele>757.671875</ele>
<time>2016-03-05T14:26:05.971Z</time>
</trkpt>
<trkpt lat="39.2132447" lon="-6.1466059">
<ele>758.129028</ele>
<time>2016-03-05T14:26:17.030Z</time>
</trkpt>
<trkpt lat="39.2134777" lon="-6.1464039">
<ele>756.696533</ele>
<time>2016-03-05T14:26:33.965Z</time>
</trkpt>
<trkpt lat="39.2136137" lon="-6.1463249">
<ele>755.721069</ele>
<time>2016-03-05T14:28:19.978Z</time>
</trkpt>
<trkpt lat="39.2138057" lon="-6.1463009">
<ele>755.263916</ele>
<time>2016-03-05T14:28:49.008Z</time>
</trkpt>
<trkpt lat="39.2140347" lon="-6.1463019">
<ele>756.208801</ele>
<time>2016-03-05T14:29:06.029Z</time>
</trkpt>
<trkpt lat="39.2142687" lon="-6.1462439">
<ele>756.696533</ele>
<time>2016-03-05T14:29:25.037Z</time>
</trkpt>
<trkpt lat="39.2144437" lon="-6.1462019">
<ele>756.696533</ele>
<time>2016-03-05T14:29:37.997Z</time>
</trkpt>
<trkpt lat="39.2145787" lon="-6.1461759">
<ele>757.671875</ele>
<time>2016-03-05T14:29:53.030Z</time>
</trkpt>
<trkpt lat="39.2148127" lon="-6.1461259">
<ele>758.129028</ele>
<time>2016-03-05T14:30:05.040Z</time>
</trkpt>
<trkpt lat="39.2149487" lon="-6.1460929">
<ele>758.616699</ele>
<time>2016-03-05T14:30:19.987Z</time>
</trkpt>
<trkpt lat="39.2150947" lon="-6.1459939">
<ele>759.104370</ele>
<time>2016-03-05T14:30:33.034Z</time>
</trkpt>
<trkpt lat="39.2153537" lon="-6.1458889">
<ele>759.592102</ele>
<time>2016-03-05T14:30:45.994Z</time>
</trkpt>
<trkpt lat="39.2156867" lon="-6.1459669">
<ele>760.049316</ele>
<time>2016-03-05T14:31:12.000Z</time>
</trkpt>
<trkpt lat="39.2158107" lon="-6.1459319">
<ele>760.049316</ele>
<time>2016-03-05T14:31:24.010Z</time>
</trkpt>
<trkpt lat="39.2160677" lon="-6.1459119">
<ele>761.969482</ele>
<time>2016-03-05T14:31:45.005Z</time>
</trkpt>
<trkpt lat="39.2162457" lon="-6.1459359">
<ele>763.432556</ele>
<time>2016-03-05T14:31:59.002Z</time>
</trkpt>
<trkpt lat="39.2164327" lon="-6.1458219">
<ele>765.352783</ele>
<time>2016-03-05T14:32:14.035Z</time>
</trkpt>
<trkpt lat="39.2165537" lon="-6.1457009">
<ele>767.273071</ele>
<time>2016-03-05T14:32:30.019Z</time>
</trkpt>
<trkpt lat="39.2166377" lon="-6.1455519">
<ele>770.625854</ele>
<time>2016-03-05T14:34:09.984Z</time>
</trkpt>
<trkpt lat="39.2168377" lon="-6.1454389">
<ele>770.625854</ele>
<time>2016-03-05T14:34:39.965Z</time>
</trkpt>
<trkpt lat="39.2169687" lon="-6.1454000">
<ele>770.625854</ele>
<time>2016-03-05T14:34:53.011Z</time>
</trkpt>
<trkpt lat="39.2172327" lon="-6.1453370">
<ele>768.217896</ele>
<time>2016-03-05T14:35:14.006Z</time>
</trkpt>
<trkpt lat="39.2174147" lon="-6.1452140">
<ele>766.297729</ele>
<time>2016-03-05T14:35:28.003Z</time>
</trkpt>
<trkpt lat="39.2175797" lon="-6.1450670">
<ele>765.352783</ele>
<time>2016-03-05T14:35:45.974Z</time>
</trkpt>
<trkpt lat="39.2177327" lon="-6.1450530">
<ele>765.352783</ele>
<time>2016-03-05T14:36:16.042Z</time>
</trkpt>
<trkpt lat="39.2179598" lon="-6.1451790">
<ele>765.352783</ele>
<time>2016-03-05T14:36:30.038Z</time>
</trkpt>
<trkpt lat="39.2181078" lon="-6.1451710">
<ele>765.352783</ele>
<time>2016-03-05T14:36:42.998Z</time>
</trkpt>
<trkpt lat="39.2182868" lon="-6.1451800">
<ele>764.865112</ele>
<time>2016-03-05T14:36:55.958Z</time>
</trkpt>
<trkpt lat="39.2184148" lon="-6.1452080">
<ele>764.865112</ele>
<time>2016-03-05T14:37:07.968Z</time>
</trkpt>
<trkpt lat="39.2186108" lon="-6.1452930">
<ele>764.865112</ele>
<time>2016-03-05T14:37:21.014Z</time>
</trkpt>
<trkpt lat="39.2187558" lon="-6.1454650">
<ele>764.865112</ele>
<time>2016-03-05T14:37:33.974Z</time>
</trkpt>
<trkpt lat="39.2188858" lon="-6.1456370">
<ele>764.865112</ele>
<time>2016-03-05T14:37:47.971Z</time>
</trkpt>
<trkpt lat="39.2189818" lon="-6.1457040">
<ele>767.273071</ele>
<time>2016-03-05T14:38:03.005Z</time>
</trkpt>
<trkpt lat="39.2191508" lon="-6.1458440">
<ele>767.760681</ele>
<time>2016-03-05T14:38:53.030Z</time>
</trkpt>
<trkpt lat="39.2192738" lon="-6.1459490">
<ele>766.785339</ele>
<time>2016-03-05T14:39:02.966Z</time>
</trkpt>
<trkpt lat="39.2194148" lon="-6.1460760">
<ele>766.785339</ele>
<time>2016-03-05T14:39:14.026Z</time>
</trkpt>
<trkpt lat="39.2195108" lon="-6.1462240">
<ele>766.785339</ele>
<time>2016-03-05T14:39:45.994Z</time>
</trkpt>
<trkpt lat="39.2195898" lon="-6.1464230">
<ele>765.352783</ele>
<time>2016-03-05T14:39:58.003Z</time>
</trkpt>
<trkpt lat="39.2196908" lon="-6.1464710">
<ele>764.377441</ele>
<time>2016-03-05T14:40:15.024Z</time>
</trkpt>
<trkpt lat="39.2198638" lon="-6.1463980">
<ele>762.457214</ele>
<time>2016-03-05T14:40:27.984Z</time>
</trkpt>
<trkpt lat="39.2200228" lon="-6.1462700">
<ele>755.263916</ele>
<time>2016-03-05T14:40:50.966Z</time>
</trkpt>
<trkpt lat="39.2202198" lon="-6.1462530">
<ele>754.776245</ele>
<time>2016-03-05T14:41:00.989Z</time>
</trkpt>
<trkpt lat="39.2204868" lon="-6.1463650">
<ele>752.856018</ele>
<time>2016-03-05T14:41:18.010Z</time>
</trkpt>
<trkpt lat="39.2206358" lon="-6.1463790">
<ele>751.880676</ele>
<time>2016-03-05T14:41:30.019Z</time>
</trkpt>
<trkpt lat="39.2208678" lon="-6.1464340">
<ele>751.423462</ele>
<time>2016-03-05T14:41:56.026Z</time>
</trkpt>
<trkpt lat="39.2210708" lon="-6.1464480">
<ele>751.423462</ele>
<time>2016-03-05T14:42:12.960Z</time>
</trkpt>
<trkpt lat="39.2212218" lon="-6.1464580">
<ele>751.423462</ele>
<time>2016-03-05T14:42:26.957Z</time>
</trkpt>
<trkpt lat="39.2213198" lon="-6.1464780">
<ele>750.935730</ele>
<time>2016-03-05T14:43:28.042Z</time>
</trkpt>
<trkpt lat="39.2214058" lon="-6.1465451">
<ele>750.448120</ele>
<time>2016-03-05T14:43:39.965Z</time>
</trkpt>
<trkpt lat="39.2216048" lon="-6.1466411">
<ele>748.527832</ele>
<time>2016-03-05T14:44:00.010Z</time>
</trkpt>
<trkpt lat="39.2217278" lon="-6.1466561">
<ele>747.552490</ele>
<time>2016-03-05T14:44:10.982Z</time>
</trkpt>
<trkpt lat="39.2218868" lon="-6.1466601">
<ele>744.199707</ele>
<time>2016-03-05T14:44:21.005Z</time>
</trkpt>
<trkpt lat="39.2220788" lon="-6.1466671">
<ele>743.254822</ele>
<time>2016-03-05T14:44:33.965Z</time>
</trkpt>
<trkpt lat="39.2222238" lon="-6.1467071">
<ele>742.767090</ele>
<time>2016-03-05T14:44:45.024Z</time>
</trkpt>
<trkpt lat="39.2223778" lon="-6.1468441">
<ele>741.304138</ele>
<time>2016-03-05T14:44:54.960Z</time>
</trkpt>
<trkpt lat="39.2224088" lon="-6.1468581">
<ele>740.359192</ele>
<time>2016-03-05T14:44:59.971Z</time>
</trkpt>
<trkpt lat="39.2224648" lon="-6.1468871">
<ele>739.871460</ele>
<time>2016-03-05T14:45:04.032Z</time>
</trkpt>
<trkpt lat="39.2225368" lon="-6.1468621">
<ele>739.383850</ele>
<time>2016-03-05T14:45:16.042Z</time>
</trkpt>
</trkseg>
</trk>
</gpx>
